<?xml version="1.0" encoding="UTF-8" standalone="no" ?>
<gpx xmlns="http://www.topografix.com/GPX/1/1" xmlns:xsi="http://www.w3.org/2001/XMLSchema-instance" xsi:schemaLocation="http://www.topografix.com/GPX/1/1 http://www.topografix.com/GPX/1/1/gpx.xsd" version="1.1" creator="VisuGPX - https://www.visugpx.com">
  <metadata>
    <name>MUCO MOTO 2013 3/3</name>
    <desc><![CDATA[Tracé muco 2013 1/3]]></desc>
  </metadata>
  <trk>
    <name><![CDATA[dim. 22/sept./2013 16:44:26]]></name>
    <trkseg>
      <trkpt lat="47.95421" lon="2.84008">
        <ele>131</ele>
        <time>2013-09-22T14:44:26Z</time>
      </trkpt>
      <trkpt lat="47.95424" lon="2.84008">
        <ele>133</ele>
        <time>2013-09-22T14:44:27Z</time>
      </trkpt>
      <trkpt lat="47.95447" lon="2.84023">
        <ele>127</ele>
        <time>2013-09-22T14:45:14Z</time>
      </trkpt>
      <trkpt lat="47.95487" lon="2.84041">
        <ele>127</ele>
        <time>2013-09-22T14:45:17Z</time>
      </trkpt>
      <trkpt lat="47.95532" lon="2.84062">
        <ele>127</ele>
        <time>2013-09-22T14:45:20Z</time>
      </trkpt>
      <trkpt lat="47.9555" lon="2.8407">
        <ele>128</ele>
        <time>2013-09-22T14:45:21Z</time>
      </trkpt>
      <trkpt lat="47.95569" lon="2.84079">
        <ele>128</ele>
        <time>2013-09-22T14:45:22Z</time>
      </trkpt>
      <trkpt lat="47.95587" lon="2.84087">
        <ele>128</ele>
        <time>2013-09-22T14:45:23Z</time>
      </trkpt>
      <trkpt lat="47.95621" lon="2.84103">
        <ele>128</ele>
        <time>2013-09-22T14:45:25Z</time>
      </trkpt>
      <trkpt lat="47.95647" lon="2.84117">
        <ele>129</ele>
        <time>2013-09-22T14:45:27Z</time>
      </trkpt>
      <trkpt lat="47.95665" lon="2.84126">
        <ele>128</ele>
        <time>2013-09-22T14:45:29Z</time>
      </trkpt>
      <trkpt lat="47.95684" lon="2.84134">
        <ele>131</ele>
        <time>2013-09-22T14:45:35Z</time>
      </trkpt>
      <trkpt lat="47.95707" lon="2.84135">
        <ele>131</ele>
        <time>2013-09-22T14:45:37Z</time>
      </trkpt>
      <trkpt lat="47.95739" lon="2.8414">
        <ele>131</ele>
        <time>2013-09-22T14:45:39Z</time>
      </trkpt>
      <trkpt lat="47.95776" lon="2.84146">
        <ele>131</ele>
        <time>2013-09-22T14:45:41Z</time>
      </trkpt>
      <trkpt lat="47.95794" lon="2.84149">
        <ele>131</ele>
        <time>2013-09-22T14:45:42Z</time>
      </trkpt>
      <trkpt lat="47.95828" lon="2.84155">
        <ele>132</ele>
        <time>2013-09-22T14:45:44Z</time>
      </trkpt>
      <trkpt lat="47.95853" lon="2.84158">
        <ele>132</ele>
        <time>2013-09-22T14:45:46Z</time>
      </trkpt>
      <trkpt lat="47.95874" lon="2.84173">
        <ele>132</ele>
        <time>2013-09-22T14:45:49Z</time>
      </trkpt>
      <trkpt lat="47.95882" lon="2.84202">
        <ele>131</ele>
        <time>2013-09-22T14:45:51Z</time>
      </trkpt>
      <trkpt lat="47.95888" lon="2.84245">
        <ele>131</ele>
        <time>2013-09-22T14:45:53Z</time>
      </trkpt>
      <trkpt lat="47.95893" lon="2.8429">
        <ele>130</ele>
        <time>2013-09-22T14:45:55Z</time>
      </trkpt>
      <trkpt lat="47.95899" lon="2.84334">
        <ele>131</ele>
        <time>2013-09-22T14:45:57Z</time>
      </trkpt>
      <trkpt lat="47.95904" lon="2.84373">
        <ele>131</ele>
        <time>2013-09-22T14:45:59Z</time>
      </trkpt>
      <trkpt lat="47.95905" lon="2.84408">
        <ele>131</ele>
        <time>2013-09-22T14:46:01Z</time>
      </trkpt>
      <trkpt lat="47.95897" lon="2.84432">
        <ele>131</ele>
        <time>2013-09-22T14:46:03Z</time>
      </trkpt>
      <trkpt lat="47.95897" lon="2.84465">
        <ele>132</ele>
        <time>2013-09-22T14:46:06Z</time>
      </trkpt>
      <trkpt lat="47.95905" lon="2.84493">
        <ele>132</ele>
        <time>2013-09-22T14:46:08Z</time>
      </trkpt>
      <trkpt lat="47.95921" lon="2.84517">
        <ele>131</ele>
        <time>2013-09-22T14:46:10Z</time>
      </trkpt>
      <trkpt lat="47.95934" lon="2.84545">
        <ele>130</ele>
        <time>2013-09-22T14:46:12Z</time>
      </trkpt>
      <trkpt lat="47.95942" lon="2.84576">
        <ele>129</ele>
        <time>2013-09-22T14:46:14Z</time>
      </trkpt>
      <trkpt lat="47.95943" lon="2.8461">
        <ele>130</ele>
        <time>2013-09-22T14:46:16Z</time>
      </trkpt>
      <trkpt lat="47.95945" lon="2.84648">
        <ele>129</ele>
        <time>2013-09-22T14:46:18Z</time>
      </trkpt>
      <trkpt lat="47.95953" lon="2.84687">
        <ele>130</ele>
        <time>2013-09-22T14:46:20Z</time>
      </trkpt>
      <trkpt lat="47.95964" lon="2.84723">
        <ele>132</ele>
        <time>2013-09-22T14:46:22Z</time>
      </trkpt>
      <trkpt lat="47.95979" lon="2.84752">
        <ele>132</ele>
        <time>2013-09-22T14:46:25Z</time>
      </trkpt>
      <trkpt lat="47.95996" lon="2.84768">
        <ele>131</ele>
        <time>2013-09-22T14:46:27Z</time>
      </trkpt>
      <trkpt lat="47.96019" lon="2.84799">
        <ele>130</ele>
        <time>2013-09-22T14:46:29Z</time>
      </trkpt>
      <trkpt lat="47.96035" lon="2.84841">
        <ele>131</ele>
        <time>2013-09-22T14:46:31Z</time>
      </trkpt>
      <trkpt lat="47.96048" lon="2.8489">
        <ele>132</ele>
        <time>2013-09-22T14:46:33Z</time>
      </trkpt>
      <trkpt lat="47.9606" lon="2.84933">
        <ele>132</ele>
        <time>2013-09-22T14:46:35Z</time>
      </trkpt>
      <trkpt lat="47.96072" lon="2.84971">
        <ele>133</ele>
        <time>2013-09-22T14:46:37Z</time>
      </trkpt>
      <trkpt lat="47.96085" lon="2.85013">
        <ele>133</ele>
        <time>2013-09-22T14:46:39Z</time>
      </trkpt>
      <trkpt lat="47.96105" lon="2.85052">
        <ele>132</ele>
        <time>2013-09-22T14:46:41Z</time>
      </trkpt>
      <trkpt lat="47.96122" lon="2.85091">
        <ele>131</ele>
        <time>2013-09-22T14:46:43Z</time>
      </trkpt>
      <trkpt lat="47.9614" lon="2.8513">
        <ele>131</ele>
        <time>2013-09-22T14:46:45Z</time>
      </trkpt>
      <trkpt lat="47.96163" lon="2.85166">
        <ele>130</ele>
        <time>2013-09-22T14:46:47Z</time>
      </trkpt>
      <trkpt lat="47.96187" lon="2.85203">
        <ele>130</ele>
        <time>2013-09-22T14:46:49Z</time>
      </trkpt>
      <trkpt lat="47.96207" lon="2.8524">
        <ele>131</ele>
        <time>2013-09-22T14:46:51Z</time>
      </trkpt>
      <trkpt lat="47.9622" lon="2.85279">
        <ele>132</ele>
        <time>2013-09-22T14:46:53Z</time>
      </trkpt>
      <trkpt lat="47.96221" lon="2.85319">
        <ele>132</ele>
        <time>2013-09-22T14:46:55Z</time>
      </trkpt>
      <trkpt lat="47.96205" lon="2.85365">
        <ele>131</ele>
        <time>2013-09-22T14:46:57Z</time>
      </trkpt>
      <trkpt lat="47.96197" lon="2.8539">
        <ele>131</ele>
        <time>2013-09-22T14:46:58Z</time>
      </trkpt>
      <trkpt lat="47.96186" lon="2.85437">
        <ele>130</ele>
        <time>2013-09-22T14:47:00Z</time>
      </trkpt>
      <trkpt lat="47.96182" lon="2.85486">
        <ele>130</ele>
        <time>2013-09-22T14:47:02Z</time>
      </trkpt>
      <trkpt lat="47.96188" lon="2.85535">
        <ele>129</ele>
        <time>2013-09-22T14:47:04Z</time>
      </trkpt>
      <trkpt lat="47.962" lon="2.85577">
        <ele>128</ele>
        <time>2013-09-22T14:47:06Z</time>
      </trkpt>
      <trkpt lat="47.96205" lon="2.85612">
        <ele>128</ele>
        <time>2013-09-22T14:47:08Z</time>
      </trkpt>
      <trkpt lat="47.96215" lon="2.85638">
        <ele>128</ele>
        <time>2013-09-22T14:47:10Z</time>
      </trkpt>
      <trkpt lat="47.96237" lon="2.8565">
        <ele>126</ele>
        <time>2013-09-22T14:47:12Z</time>
      </trkpt>
      <trkpt lat="47.9626" lon="2.85655">
        <ele>126</ele>
        <time>2013-09-22T14:47:14Z</time>
      </trkpt>
      <trkpt lat="47.9628" lon="2.85677">
        <ele>125</ele>
        <time>2013-09-22T14:47:16Z</time>
      </trkpt>
      <trkpt lat="47.96292" lon="2.85697">
        <ele>125</ele>
        <time>2013-09-22T14:47:17Z</time>
      </trkpt>
      <trkpt lat="47.96305" lon="2.85716">
        <ele>125</ele>
        <time>2013-09-22T14:47:18Z</time>
      </trkpt>
      <trkpt lat="47.96322" lon="2.85734">
        <ele>126</ele>
        <time>2013-09-22T14:47:19Z</time>
      </trkpt>
      <trkpt lat="47.9634" lon="2.85751">
        <ele>126</ele>
        <time>2013-09-22T14:47:20Z</time>
      </trkpt>
      <trkpt lat="47.96358" lon="2.85768">
        <ele>126</ele>
        <time>2013-09-22T14:47:21Z</time>
      </trkpt>
      <trkpt lat="47.96377" lon="2.85784">
        <ele>127</ele>
        <time>2013-09-22T14:47:22Z</time>
      </trkpt>
      <trkpt lat="47.96397" lon="2.85802">
        <ele>127</ele>
        <time>2013-09-22T14:47:23Z</time>
      </trkpt>
      <trkpt lat="47.96416" lon="2.8582">
        <ele>127</ele>
        <time>2013-09-22T14:47:24Z</time>
      </trkpt>
      <trkpt lat="47.96436" lon="2.85838">
        <ele>126</ele>
        <time>2013-09-22T14:47:25Z</time>
      </trkpt>
      <trkpt lat="47.96455" lon="2.85857">
        <ele>126</ele>
        <time>2013-09-22T14:47:26Z</time>
      </trkpt>
      <trkpt lat="47.96475" lon="2.85875">
        <ele>126</ele>
        <time>2013-09-22T14:47:27Z</time>
      </trkpt>
      <trkpt lat="47.96495" lon="2.85894">
        <ele>126</ele>
        <time>2013-09-22T14:47:28Z</time>
      </trkpt>
      <trkpt lat="47.96514" lon="2.85911">
        <ele>126</ele>
        <time>2013-09-22T14:47:29Z</time>
      </trkpt>
      <trkpt lat="47.96531" lon="2.85928">
        <ele>126</ele>
        <time>2013-09-22T14:47:30Z</time>
      </trkpt>
      <trkpt lat="47.96546" lon="2.85947">
        <ele>125</ele>
        <time>2013-09-22T14:47:31Z</time>
      </trkpt>
      <trkpt lat="47.9656" lon="2.85969">
        <ele>124</ele>
        <time>2013-09-22T14:47:32Z</time>
      </trkpt>
      <trkpt lat="47.96573" lon="2.85996">
        <ele>123</ele>
        <time>2013-09-22T14:47:33Z</time>
      </trkpt>
      <trkpt lat="47.96586" lon="2.86023">
        <ele>123</ele>
        <time>2013-09-22T14:47:34Z</time>
      </trkpt>
      <trkpt lat="47.966" lon="2.86051">
        <ele>122</ele>
        <time>2013-09-22T14:47:35Z</time>
      </trkpt>
      <trkpt lat="47.96614" lon="2.8608">
        <ele>121</ele>
        <time>2013-09-22T14:47:36Z</time>
      </trkpt>
      <trkpt lat="47.96628" lon="2.86108">
        <ele>121</ele>
        <time>2013-09-22T14:47:37Z</time>
      </trkpt>
      <trkpt lat="47.96642" lon="2.86135">
        <ele>121</ele>
        <time>2013-09-22T14:47:38Z</time>
      </trkpt>
      <trkpt lat="47.96654" lon="2.86159">
        <ele>120</ele>
        <time>2013-09-22T14:47:39Z</time>
      </trkpt>
      <trkpt lat="47.96665" lon="2.86182">
        <ele>121</ele>
        <time>2013-09-22T14:47:40Z</time>
      </trkpt>
      <trkpt lat="47.96676" lon="2.86204">
        <ele>121</ele>
        <time>2013-09-22T14:47:41Z</time>
      </trkpt>
      <trkpt lat="47.96688" lon="2.86254">
        <ele>124</ele>
        <time>2013-09-22T14:47:43Z</time>
      </trkpt>
      <trkpt lat="47.96695" lon="2.8628">
        <ele>125</ele>
        <time>2013-09-22T14:47:44Z</time>
      </trkpt>
      <trkpt lat="47.96702" lon="2.86306">
        <ele>125</ele>
        <time>2013-09-22T14:47:45Z</time>
      </trkpt>
      <trkpt lat="47.96711" lon="2.86359">
        <ele>125</ele>
        <time>2013-09-22T14:47:47Z</time>
      </trkpt>
      <trkpt lat="47.96714" lon="2.86386">
        <ele>125</ele>
        <time>2013-09-22T14:47:48Z</time>
      </trkpt>
      <trkpt lat="47.96716" lon="2.86415">
        <ele>125</ele>
        <time>2013-09-22T14:47:49Z</time>
      </trkpt>
      <trkpt lat="47.96717" lon="2.86442">
        <ele>125</ele>
        <time>2013-09-22T14:47:50Z</time>
      </trkpt>
      <trkpt lat="47.9672" lon="2.86474">
        <ele>126</ele>
        <time>2013-09-22T14:47:52Z</time>
      </trkpt>
      <trkpt lat="47.96722" lon="2.86505">
        <ele>127</ele>
        <time>2013-09-22T14:47:56Z</time>
      </trkpt>
      <trkpt lat="47.96735" lon="2.86544">
        <ele>127</ele>
        <time>2013-09-22T14:47:59Z</time>
      </trkpt>
      <trkpt lat="47.96752" lon="2.86585">
        <ele>128</ele>
        <time>2013-09-22T14:48:01Z</time>
      </trkpt>
      <trkpt lat="47.96762" lon="2.86609">
        <ele>128</ele>
        <time>2013-09-22T14:48:02Z</time>
      </trkpt>
      <trkpt lat="47.96774" lon="2.86634">
        <ele>129</ele>
        <time>2013-09-22T14:48:03Z</time>
      </trkpt>
      <trkpt lat="47.96786" lon="2.86661">
        <ele>129</ele>
        <time>2013-09-22T14:48:04Z</time>
      </trkpt>
      <trkpt lat="47.96798" lon="2.8669">
        <ele>129</ele>
        <time>2013-09-22T14:48:05Z</time>
      </trkpt>
      <trkpt lat="47.96811" lon="2.86717">
        <ele>130</ele>
        <time>2013-09-22T14:48:06Z</time>
      </trkpt>
      <trkpt lat="47.96824" lon="2.86745">
        <ele>131</ele>
        <time>2013-09-22T14:48:07Z</time>
      </trkpt>
      <trkpt lat="47.96837" lon="2.86773">
        <ele>131</ele>
        <time>2013-09-22T14:48:08Z</time>
      </trkpt>
      <trkpt lat="47.96852" lon="2.86799">
        <ele>132</ele>
        <time>2013-09-22T14:48:09Z</time>
      </trkpt>
      <trkpt lat="47.96867" lon="2.86824">
        <ele>132</ele>
        <time>2013-09-22T14:48:10Z</time>
      </trkpt>
      <trkpt lat="47.96884" lon="2.86849">
        <ele>132</ele>
        <time>2013-09-22T14:48:11Z</time>
      </trkpt>
      <trkpt lat="47.96902" lon="2.86872">
        <ele>132</ele>
        <time>2013-09-22T14:48:12Z</time>
      </trkpt>
      <trkpt lat="47.96919" lon="2.86894">
        <ele>133</ele>
        <time>2013-09-22T14:48:13Z</time>
      </trkpt>
      <trkpt lat="47.96935" lon="2.86915">
        <ele>133</ele>
        <time>2013-09-22T14:48:14Z</time>
      </trkpt>
      <trkpt lat="47.96951" lon="2.86935">
        <ele>133</ele>
        <time>2013-09-22T14:48:15Z</time>
      </trkpt>
      <trkpt lat="47.96966" lon="2.86955">
        <ele>134</ele>
        <time>2013-09-22T14:48:16Z</time>
      </trkpt>
      <trkpt lat="47.96981" lon="2.86976">
        <ele>134</ele>
        <time>2013-09-22T14:48:17Z</time>
      </trkpt>
      <trkpt lat="47.96995" lon="2.87">
        <ele>134</ele>
        <time>2013-09-22T14:48:18Z</time>
      </trkpt>
      <trkpt lat="47.97008" lon="2.87025">
        <ele>134</ele>
        <time>2013-09-22T14:48:19Z</time>
      </trkpt>
      <trkpt lat="47.97022" lon="2.87048">
        <ele>135</ele>
        <time>2013-09-22T14:48:20Z</time>
      </trkpt>
      <trkpt lat="47.97036" lon="2.87073">
        <ele>135</ele>
        <time>2013-09-22T14:48:21Z</time>
      </trkpt>
      <trkpt lat="47.97049" lon="2.87098">
        <ele>136</ele>
        <time>2013-09-22T14:48:22Z</time>
      </trkpt>
      <trkpt lat="47.97061" lon="2.87124">
        <ele>135</ele>
        <time>2013-09-22T14:48:23Z</time>
      </trkpt>
      <trkpt lat="47.97072" lon="2.87149">
        <ele>135</ele>
        <time>2013-09-22T14:48:24Z</time>
      </trkpt>
      <trkpt lat="47.97082" lon="2.87174">
        <ele>135</ele>
        <time>2013-09-22T14:48:25Z</time>
      </trkpt>
      <trkpt lat="47.97092" lon="2.87198">
        <ele>135</ele>
        <time>2013-09-22T14:48:26Z</time>
      </trkpt>
      <trkpt lat="47.9711" lon="2.87234">
        <ele>134</ele>
        <time>2013-09-22T14:48:28Z</time>
      </trkpt>
      <trkpt lat="47.97134" lon="2.87265">
        <ele>134</ele>
        <time>2013-09-22T14:48:30Z</time>
      </trkpt>
      <trkpt lat="47.97154" lon="2.87267">
        <ele>134</ele>
        <time>2013-09-22T14:48:31Z</time>
      </trkpt>
      <trkpt lat="47.97172" lon="2.87267">
        <ele>135</ele>
        <time>2013-09-22T14:48:32Z</time>
      </trkpt>
      <trkpt lat="47.97192" lon="2.87264">
        <ele>135</ele>
        <time>2013-09-22T14:48:33Z</time>
      </trkpt>
      <trkpt lat="47.97211" lon="2.87262">
        <ele>135</ele>
        <time>2013-09-22T14:48:34Z</time>
      </trkpt>
      <trkpt lat="47.97232" lon="2.87259">
        <ele>135</ele>
        <time>2013-09-22T14:48:35Z</time>
      </trkpt>
      <trkpt lat="47.97255" lon="2.87259">
        <ele>136</ele>
        <time>2013-09-22T14:48:36Z</time>
      </trkpt>
      <trkpt lat="47.97274" lon="2.87257">
        <ele>136</ele>
        <time>2013-09-22T14:48:37Z</time>
      </trkpt>
      <trkpt lat="47.97292" lon="2.87257">
        <ele>136</ele>
        <time>2013-09-22T14:48:38Z</time>
      </trkpt>
      <trkpt lat="47.97312" lon="2.87258">
        <ele>137</ele>
        <time>2013-09-22T14:48:39Z</time>
      </trkpt>
      <trkpt lat="47.97345" lon="2.87274">
        <ele>136</ele>
        <time>2013-09-22T14:48:41Z</time>
      </trkpt>
      <trkpt lat="47.97362" lon="2.87287">
        <ele>137</ele>
        <time>2013-09-22T14:48:42Z</time>
      </trkpt>
      <trkpt lat="47.97382" lon="2.87304">
        <ele>137</ele>
        <time>2013-09-22T14:48:43Z</time>
      </trkpt>
      <trkpt lat="47.97402" lon="2.87321">
        <ele>137</ele>
        <time>2013-09-22T14:48:44Z</time>
      </trkpt>
      <trkpt lat="47.97421" lon="2.87338">
        <ele>137</ele>
        <time>2013-09-22T14:48:45Z</time>
      </trkpt>
      <trkpt lat="47.9744" lon="2.87355">
        <ele>137</ele>
        <time>2013-09-22T14:48:46Z</time>
      </trkpt>
      <trkpt lat="47.97459" lon="2.87373">
        <ele>137</ele>
        <time>2013-09-22T14:48:47Z</time>
      </trkpt>
      <trkpt lat="47.97478" lon="2.87389">
        <ele>137</ele>
        <time>2013-09-22T14:48:48Z</time>
      </trkpt>
      <trkpt lat="47.97497" lon="2.87405">
        <ele>137</ele>
        <time>2013-09-22T14:48:49Z</time>
      </trkpt>
      <trkpt lat="47.97515" lon="2.87421">
        <ele>137</ele>
        <time>2013-09-22T14:48:50Z</time>
      </trkpt>
      <trkpt lat="47.97533" lon="2.87437">
        <ele>137</ele>
        <time>2013-09-22T14:48:51Z</time>
      </trkpt>
      <trkpt lat="47.97567" lon="2.87465">
        <ele>137</ele>
        <time>2013-09-22T14:48:53Z</time>
      </trkpt>
      <trkpt lat="47.97596" lon="2.87491">
        <ele>137</ele>
        <time>2013-09-22T14:48:55Z</time>
      </trkpt>
      <trkpt lat="47.97619" lon="2.87511">
        <ele>137</ele>
        <time>2013-09-22T14:48:57Z</time>
      </trkpt>
      <trkpt lat="47.97642" lon="2.87534">
        <ele>137</ele>
        <time>2013-09-22T14:49:00Z</time>
      </trkpt>
      <trkpt lat="47.97662" lon="2.87555">
        <ele>136</ele>
        <time>2013-09-22T14:49:07Z</time>
      </trkpt>
      <trkpt lat="47.97682" lon="2.87571">
        <ele>136</ele>
        <time>2013-09-22T14:49:09Z</time>
      </trkpt>
      <trkpt lat="47.97699" lon="2.87579">
        <ele>137</ele>
        <time>2013-09-22T14:49:10Z</time>
      </trkpt>
      <trkpt lat="47.9773" lon="2.87596">
        <ele>137</ele>
        <time>2013-09-22T14:49:12Z</time>
      </trkpt>
      <trkpt lat="47.97759" lon="2.87617">
        <ele>137</ele>
        <time>2013-09-22T14:49:14Z</time>
      </trkpt>
      <trkpt lat="47.97785" lon="2.87645">
        <ele>137</ele>
        <time>2013-09-22T14:49:16Z</time>
      </trkpt>
      <trkpt lat="47.97808" lon="2.87679">
        <ele>137</ele>
        <time>2013-09-22T14:49:18Z</time>
      </trkpt>
      <trkpt lat="47.97829" lon="2.87709">
        <ele>135</ele>
        <time>2013-09-22T14:49:20Z</time>
      </trkpt>
      <trkpt lat="47.97859" lon="2.87724">
        <ele>134</ele>
        <time>2013-09-22T14:49:22Z</time>
      </trkpt>
      <trkpt lat="47.97889" lon="2.87736">
        <ele>130</ele>
        <time>2013-09-22T14:49:24Z</time>
      </trkpt>
      <trkpt lat="47.97917" lon="2.87762">
        <ele>132</ele>
        <time>2013-09-22T14:49:26Z</time>
      </trkpt>
      <trkpt lat="47.97944" lon="2.87789">
        <ele>130</ele>
        <time>2013-09-22T14:49:28Z</time>
      </trkpt>
      <trkpt lat="47.97975" lon="2.87815">
        <ele>130</ele>
        <time>2013-09-22T14:49:30Z</time>
      </trkpt>
      <trkpt lat="47.97992" lon="2.87824">
        <ele>129</ele>
        <time>2013-09-22T14:49:31Z</time>
      </trkpt>
      <trkpt lat="47.98011" lon="2.8783">
        <ele>130</ele>
        <time>2013-09-22T14:49:32Z</time>
      </trkpt>
      <trkpt lat="47.9803" lon="2.87837">
        <ele>130</ele>
        <time>2013-09-22T14:49:33Z</time>
      </trkpt>
      <trkpt lat="47.98049" lon="2.87844">
        <ele>130</ele>
        <time>2013-09-22T14:49:34Z</time>
      </trkpt>
      <trkpt lat="47.98069" lon="2.87851">
        <ele>130</ele>
        <time>2013-09-22T14:49:35Z</time>
      </trkpt>
      <trkpt lat="47.98088" lon="2.87862">
        <ele>130</ele>
        <time>2013-09-22T14:49:36Z</time>
      </trkpt>
      <trkpt lat="47.98107" lon="2.8787">
        <ele>130</ele>
        <time>2013-09-22T14:49:37Z</time>
      </trkpt>
      <trkpt lat="47.98126" lon="2.87876">
        <ele>130</ele>
        <time>2013-09-22T14:49:38Z</time>
      </trkpt>
      <trkpt lat="47.98144" lon="2.87883">
        <ele>130</ele>
        <time>2013-09-22T14:49:39Z</time>
      </trkpt>
      <trkpt lat="47.98163" lon="2.87894">
        <ele>130</ele>
        <time>2013-09-22T14:49:40Z</time>
      </trkpt>
      <trkpt lat="47.98182" lon="2.87905">
        <ele>130</ele>
        <time>2013-09-22T14:49:41Z</time>
      </trkpt>
      <trkpt lat="47.982" lon="2.87918">
        <ele>129</ele>
        <time>2013-09-22T14:49:42Z</time>
      </trkpt>
      <trkpt lat="47.98217" lon="2.87932">
        <ele>129</ele>
        <time>2013-09-22T14:49:43Z</time>
      </trkpt>
      <trkpt lat="47.98247" lon="2.87957">
        <ele>129</ele>
        <time>2013-09-22T14:49:45Z</time>
      </trkpt>
      <trkpt lat="47.98269" lon="2.87987">
        <ele>128</ele>
        <time>2013-09-22T14:49:47Z</time>
      </trkpt>
      <trkpt lat="47.98283" lon="2.88025">
        <ele>131</ele>
        <time>2013-09-22T14:49:49Z</time>
      </trkpt>
      <trkpt lat="47.98288" lon="2.88065">
        <ele>131</ele>
        <time>2013-09-22T14:49:51Z</time>
      </trkpt>
      <trkpt lat="47.98298" lon="2.881">
        <ele>131</ele>
        <time>2013-09-22T14:49:53Z</time>
      </trkpt>
      <trkpt lat="47.98321" lon="2.88129">
        <ele>132</ele>
        <time>2013-09-22T14:49:55Z</time>
      </trkpt>
      <trkpt lat="47.98348" lon="2.88164">
        <ele>133</ele>
        <time>2013-09-22T14:49:57Z</time>
      </trkpt>
      <trkpt lat="47.98361" lon="2.88187">
        <ele>133</ele>
        <time>2013-09-22T14:49:58Z</time>
      </trkpt>
      <trkpt lat="47.98372" lon="2.88212">
        <ele>134</ele>
        <time>2013-09-22T14:49:59Z</time>
      </trkpt>
      <trkpt lat="47.98384" lon="2.88238">
        <ele>134</ele>
        <time>2013-09-22T14:50:00Z</time>
      </trkpt>
      <trkpt lat="47.98395" lon="2.88264">
        <ele>134</ele>
        <time>2013-09-22T14:50:01Z</time>
      </trkpt>
      <trkpt lat="47.98407" lon="2.8829">
        <ele>135</ele>
        <time>2013-09-22T14:50:02Z</time>
      </trkpt>
      <trkpt lat="47.9842" lon="2.88317">
        <ele>135</ele>
        <time>2013-09-22T14:50:03Z</time>
      </trkpt>
      <trkpt lat="47.98433" lon="2.88346">
        <ele>135</ele>
        <time>2013-09-22T14:50:04Z</time>
      </trkpt>
      <trkpt lat="47.98446" lon="2.88375">
        <ele>135</ele>
        <time>2013-09-22T14:50:05Z</time>
      </trkpt>
      <trkpt lat="47.9846" lon="2.88404">
        <ele>135</ele>
        <time>2013-09-22T14:50:06Z</time>
      </trkpt>
      <trkpt lat="47.98474" lon="2.88434">
        <ele>134</ele>
        <time>2013-09-22T14:50:07Z</time>
      </trkpt>
      <trkpt lat="47.98487" lon="2.88463">
        <ele>135</ele>
        <time>2013-09-22T14:50:08Z</time>
      </trkpt>
      <trkpt lat="47.985" lon="2.8849">
        <ele>135</ele>
        <time>2013-09-22T14:50:09Z</time>
      </trkpt>
      <trkpt lat="47.98512" lon="2.88514">
        <ele>136</ele>
        <time>2013-09-22T14:50:10Z</time>
      </trkpt>
      <trkpt lat="47.98524" lon="2.88537">
        <ele>136</ele>
        <time>2013-09-22T14:50:11Z</time>
      </trkpt>
      <trkpt lat="47.98546" lon="2.88572">
        <ele>136</ele>
        <time>2013-09-22T14:50:13Z</time>
      </trkpt>
      <trkpt lat="47.98563" lon="2.88597">
        <ele>136</ele>
        <time>2013-09-22T14:50:15Z</time>
      </trkpt>
      <trkpt lat="47.98582" lon="2.88607">
        <ele>136</ele>
        <time>2013-09-22T14:50:17Z</time>
      </trkpt>
      <trkpt lat="47.98611" lon="2.88593">
        <ele>136</ele>
        <time>2013-09-22T14:50:19Z</time>
      </trkpt>
      <trkpt lat="47.98628" lon="2.88581">
        <ele>136</ele>
        <time>2013-09-22T14:50:20Z</time>
      </trkpt>
      <trkpt lat="47.98645" lon="2.8857">
        <ele>136</ele>
        <time>2013-09-22T14:50:21Z</time>
      </trkpt>
      <trkpt lat="47.98662" lon="2.88559">
        <ele>136</ele>
        <time>2013-09-22T14:50:22Z</time>
      </trkpt>
      <trkpt lat="47.98693" lon="2.88539">
        <ele>136</ele>
        <time>2013-09-22T14:50:24Z</time>
      </trkpt>
      <trkpt lat="47.98715" lon="2.88521">
        <ele>135</ele>
        <time>2013-09-22T14:50:26Z</time>
      </trkpt>
      <trkpt lat="47.98739" lon="2.88507">
        <ele>135</ele>
        <time>2013-09-22T14:50:29Z</time>
      </trkpt>
      <trkpt lat="47.98759" lon="2.88522">
        <ele>134</ele>
        <time>2013-09-22T14:50:31Z</time>
      </trkpt>
      <trkpt lat="47.98775" lon="2.88541">
        <ele>134</ele>
        <time>2013-09-22T14:50:32Z</time>
      </trkpt>
      <trkpt lat="47.98804" lon="2.88575">
        <ele>133</ele>
        <time>2013-09-22T14:50:34Z</time>
      </trkpt>
      <trkpt lat="47.98821" lon="2.88593">
        <ele>133</ele>
        <time>2013-09-22T14:50:35Z</time>
      </trkpt>
      <trkpt lat="47.98838" lon="2.88612">
        <ele>133</ele>
        <time>2013-09-22T14:50:36Z</time>
      </trkpt>
      <trkpt lat="47.98855" lon="2.88631">
        <ele>133</ele>
        <time>2013-09-22T14:50:37Z</time>
      </trkpt>
      <trkpt lat="47.98872" lon="2.88651">
        <ele>132</ele>
        <time>2013-09-22T14:50:38Z</time>
      </trkpt>
      <trkpt lat="47.98888" lon="2.88672">
        <ele>132</ele>
        <time>2013-09-22T14:50:39Z</time>
      </trkpt>
      <trkpt lat="47.98903" lon="2.88694">
        <ele>131</ele>
        <time>2013-09-22T14:50:40Z</time>
      </trkpt>
      <trkpt lat="47.98918" lon="2.88715">
        <ele>131</ele>
        <time>2013-09-22T14:50:41Z</time>
      </trkpt>
      <trkpt lat="47.98933" lon="2.88738">
        <ele>132</ele>
        <time>2013-09-22T14:50:42Z</time>
      </trkpt>
      <trkpt lat="47.98948" lon="2.8876">
        <ele>132</ele>
        <time>2013-09-22T14:50:43Z</time>
      </trkpt>
      <trkpt lat="47.98962" lon="2.88782">
        <ele>132</ele>
        <time>2013-09-22T14:50:44Z</time>
      </trkpt>
      <trkpt lat="47.98976" lon="2.88803">
        <ele>132</ele>
        <time>2013-09-22T14:50:45Z</time>
      </trkpt>
      <trkpt lat="47.98994" lon="2.8882">
        <ele>134</ele>
        <time>2013-09-22T14:50:46Z</time>
      </trkpt>
      <trkpt lat="47.9901" lon="2.88843">
        <ele>135</ele>
        <time>2013-09-22T14:50:47Z</time>
      </trkpt>
      <trkpt lat="47.99025" lon="2.88862">
        <ele>135</ele>
        <time>2013-09-22T14:50:48Z</time>
      </trkpt>
      <trkpt lat="47.99039" lon="2.8888">
        <ele>135</ele>
        <time>2013-09-22T14:50:49Z</time>
      </trkpt>
      <trkpt lat="47.99054" lon="2.889">
        <ele>135</ele>
        <time>2013-09-22T14:50:50Z</time>
      </trkpt>
      <trkpt lat="47.99083" lon="2.88925">
        <ele>133</ele>
        <time>2013-09-22T14:50:52Z</time>
      </trkpt>
      <trkpt lat="47.99113" lon="2.8895">
        <ele>133</ele>
        <time>2013-09-22T14:50:54Z</time>
      </trkpt>
      <trkpt lat="47.99143" lon="2.88971">
        <ele>134</ele>
        <time>2013-09-22T14:50:56Z</time>
      </trkpt>
      <trkpt lat="47.99171" lon="2.88991">
        <ele>134</ele>
        <time>2013-09-22T14:50:58Z</time>
      </trkpt>
      <trkpt lat="47.992" lon="2.89009">
        <ele>135</ele>
        <time>2013-09-22T14:51:00Z</time>
      </trkpt>
      <trkpt lat="47.99228" lon="2.89029">
        <ele>135</ele>
        <time>2013-09-22T14:51:02Z</time>
      </trkpt>
      <trkpt lat="47.99257" lon="2.89049">
        <ele>136</ele>
        <time>2013-09-22T14:51:04Z</time>
      </trkpt>
      <trkpt lat="47.99286" lon="2.89066">
        <ele>136</ele>
        <time>2013-09-22T14:51:06Z</time>
      </trkpt>
      <trkpt lat="47.99317" lon="2.89075">
        <ele>137</ele>
        <time>2013-09-22T14:51:08Z</time>
      </trkpt>
      <trkpt lat="47.99348" lon="2.89074">
        <ele>138</ele>
        <time>2013-09-22T14:51:10Z</time>
      </trkpt>
      <trkpt lat="47.99375" lon="2.89078">
        <ele>138</ele>
        <time>2013-09-22T14:51:12Z</time>
      </trkpt>
      <trkpt lat="47.99404" lon="2.89082">
        <ele>139</ele>
        <time>2013-09-22T14:51:14Z</time>
      </trkpt>
      <trkpt lat="47.99435" lon="2.89084">
        <ele>140</ele>
        <time>2013-09-22T14:51:16Z</time>
      </trkpt>
      <trkpt lat="47.9947" lon="2.89085">
        <ele>141</ele>
        <time>2013-09-22T14:51:18Z</time>
      </trkpt>
      <trkpt lat="47.99489" lon="2.89084">
        <ele>141</ele>
        <time>2013-09-22T14:51:19Z</time>
      </trkpt>
      <trkpt lat="47.99507" lon="2.89082">
        <ele>141</ele>
        <time>2013-09-22T14:51:20Z</time>
      </trkpt>
      <trkpt lat="47.99525" lon="2.89079">
        <ele>142</ele>
        <time>2013-09-22T14:51:21Z</time>
      </trkpt>
      <trkpt lat="47.99544" lon="2.89075">
        <ele>143</ele>
        <time>2013-09-22T14:51:22Z</time>
      </trkpt>
      <trkpt lat="47.99563" lon="2.89071">
        <ele>143</ele>
        <time>2013-09-22T14:51:23Z</time>
      </trkpt>
      <trkpt lat="47.99582" lon="2.89066">
        <ele>143</ele>
        <time>2013-09-22T14:51:24Z</time>
      </trkpt>
      <trkpt lat="47.99602" lon="2.89061">
        <ele>143</ele>
        <time>2013-09-22T14:51:25Z</time>
      </trkpt>
      <trkpt lat="47.99621" lon="2.89053">
        <ele>142</ele>
        <time>2013-09-22T14:51:26Z</time>
      </trkpt>
      <trkpt lat="47.99641" lon="2.89045">
        <ele>141</ele>
        <time>2013-09-22T14:51:27Z</time>
      </trkpt>
      <trkpt lat="47.99659" lon="2.89034">
        <ele>141</ele>
        <time>2013-09-22T14:51:28Z</time>
      </trkpt>
      <trkpt lat="47.99678" lon="2.89023">
        <ele>141</ele>
        <time>2013-09-22T14:51:29Z</time>
      </trkpt>
      <trkpt lat="47.99697" lon="2.89013">
        <ele>140</ele>
        <time>2013-09-22T14:51:30Z</time>
      </trkpt>
      <trkpt lat="47.99716" lon="2.89003">
        <ele>141</ele>
        <time>2013-09-22T14:51:31Z</time>
      </trkpt>
      <trkpt lat="47.99736" lon="2.88996">
        <ele>140</ele>
        <time>2013-09-22T14:51:32Z</time>
      </trkpt>
      <trkpt lat="47.99755" lon="2.88991">
        <ele>140</ele>
        <time>2013-09-22T14:51:33Z</time>
      </trkpt>
      <trkpt lat="47.99775" lon="2.88986">
        <ele>140</ele>
        <time>2013-09-22T14:51:34Z</time>
      </trkpt>
      <trkpt lat="47.99795" lon="2.88984">
        <ele>140</ele>
        <time>2013-09-22T14:51:35Z</time>
      </trkpt>
      <trkpt lat="47.99815" lon="2.88984">
        <ele>139</ele>
        <time>2013-09-22T14:51:36Z</time>
      </trkpt>
      <trkpt lat="47.99836" lon="2.88979">
        <ele>139</ele>
        <time>2013-09-22T14:51:37Z</time>
      </trkpt>
      <trkpt lat="47.99856" lon="2.88973">
        <ele>138</ele>
        <time>2013-09-22T14:51:38Z</time>
      </trkpt>
      <trkpt lat="47.99876" lon="2.88963">
        <ele>138</ele>
        <time>2013-09-22T14:51:39Z</time>
      </trkpt>
      <trkpt lat="47.99895" lon="2.88952">
        <ele>139</ele>
        <time>2013-09-22T14:51:40Z</time>
      </trkpt>
      <trkpt lat="47.99914" lon="2.8894">
        <ele>139</ele>
        <time>2013-09-22T14:51:41Z</time>
      </trkpt>
      <trkpt lat="47.99933" lon="2.88929">
        <ele>139</ele>
        <time>2013-09-22T14:51:42Z</time>
      </trkpt>
      <trkpt lat="47.99952" lon="2.88919">
        <ele>139</ele>
        <time>2013-09-22T14:51:43Z</time>
      </trkpt>
      <trkpt lat="47.99972" lon="2.88912">
        <ele>139</ele>
        <time>2013-09-22T14:51:44Z</time>
      </trkpt>
      <trkpt lat="47.99992" lon="2.88904">
        <ele>139</ele>
        <time>2013-09-22T14:51:45Z</time>
      </trkpt>
      <trkpt lat="48.00013" lon="2.88897">
        <ele>140</ele>
        <time>2013-09-22T14:51:46Z</time>
      </trkpt>
      <trkpt lat="48.00034" lon="2.8889">
        <ele>140</ele>
        <time>2013-09-22T14:51:47Z</time>
      </trkpt>
      <trkpt lat="48.00055" lon="2.88883">
        <ele>141</ele>
        <time>2013-09-22T14:51:48Z</time>
      </trkpt>
      <trkpt lat="48.00076" lon="2.88875">
        <ele>141</ele>
        <time>2013-09-22T14:51:49Z</time>
      </trkpt>
      <trkpt lat="48.00096" lon="2.88868">
        <ele>142</ele>
        <time>2013-09-22T14:51:50Z</time>
      </trkpt>
      <trkpt lat="48.00116" lon="2.88862">
        <ele>142</ele>
        <time>2013-09-22T14:51:51Z</time>
      </trkpt>
      <trkpt lat="48.00135" lon="2.88857">
        <ele>141</ele>
        <time>2013-09-22T14:51:52Z</time>
      </trkpt>
      <trkpt lat="48.00154" lon="2.88854">
        <ele>141</ele>
        <time>2013-09-22T14:51:53Z</time>
      </trkpt>
      <trkpt lat="48.00172" lon="2.88849">
        <ele>142</ele>
        <time>2013-09-22T14:51:54Z</time>
      </trkpt>
      <trkpt lat="48.00207" lon="2.88841">
        <ele>141</ele>
        <time>2013-09-22T14:51:56Z</time>
      </trkpt>
      <trkpt lat="48.00237" lon="2.88836">
        <ele>140</ele>
        <time>2013-09-22T14:51:58Z</time>
      </trkpt>
      <trkpt lat="48.0027" lon="2.88844">
        <ele>140</ele>
        <time>2013-09-22T14:52:00Z</time>
      </trkpt>
      <trkpt lat="48.00307" lon="2.88852">
        <ele>139</ele>
        <time>2013-09-22T14:52:02Z</time>
      </trkpt>
      <trkpt lat="48.00328" lon="2.8886">
        <ele>139</ele>
        <time>2013-09-22T14:52:03Z</time>
      </trkpt>
      <trkpt lat="48.00349" lon="2.88868">
        <ele>139</ele>
        <time>2013-09-22T14:52:04Z</time>
      </trkpt>
      <trkpt lat="48.00371" lon="2.88877">
        <ele>140</ele>
        <time>2013-09-22T14:52:05Z</time>
      </trkpt>
      <trkpt lat="48.00393" lon="2.88885">
        <ele>139</ele>
        <time>2013-09-22T14:52:06Z</time>
      </trkpt>
      <trkpt lat="48.00414" lon="2.88893">
        <ele>138</ele>
        <time>2013-09-22T14:52:07Z</time>
      </trkpt>
      <trkpt lat="48.00435" lon="2.88902">
        <ele>137</ele>
        <time>2013-09-22T14:52:08Z</time>
      </trkpt>
      <trkpt lat="48.00456" lon="2.88911">
        <ele>137</ele>
        <time>2013-09-22T14:52:09Z</time>
      </trkpt>
      <trkpt lat="48.00476" lon="2.88923">
        <ele>137</ele>
        <time>2013-09-22T14:52:10Z</time>
      </trkpt>
      <trkpt lat="48.00495" lon="2.88937">
        <ele>138</ele>
        <time>2013-09-22T14:52:11Z</time>
      </trkpt>
      <trkpt lat="48.00514" lon="2.88951">
        <ele>139</ele>
        <time>2013-09-22T14:52:12Z</time>
      </trkpt>
      <trkpt lat="48.00532" lon="2.88965">
        <ele>139</ele>
        <time>2013-09-22T14:52:13Z</time>
      </trkpt>
      <trkpt lat="48.00549" lon="2.88978">
        <ele>139</ele>
        <time>2013-09-22T14:52:14Z</time>
      </trkpt>
      <trkpt lat="48.00566" lon="2.88989">
        <ele>139</ele>
        <time>2013-09-22T14:52:15Z</time>
      </trkpt>
      <trkpt lat="48.00585" lon="2.88998">
        <ele>139</ele>
        <time>2013-09-22T14:52:16Z</time>
      </trkpt>
      <trkpt lat="48.00605" lon="2.89003">
        <ele>139</ele>
        <time>2013-09-22T14:52:17Z</time>
      </trkpt>
      <trkpt lat="48.00625" lon="2.89008">
        <ele>140</ele>
        <time>2013-09-22T14:52:18Z</time>
      </trkpt>
      <trkpt lat="48.00646" lon="2.89012">
        <ele>140</ele>
        <time>2013-09-22T14:52:19Z</time>
      </trkpt>
      <trkpt lat="48.00668" lon="2.89016">
        <ele>140</ele>
        <time>2013-09-22T14:52:20Z</time>
      </trkpt>
      <trkpt lat="48.0069" lon="2.8902">
        <ele>140</ele>
        <time>2013-09-22T14:52:21Z</time>
      </trkpt>
      <trkpt lat="48.00713" lon="2.89024">
        <ele>140</ele>
        <time>2013-09-22T14:52:22Z</time>
      </trkpt>
      <trkpt lat="48.00736" lon="2.89028">
        <ele>139</ele>
        <time>2013-09-22T14:52:23Z</time>
      </trkpt>
      <trkpt lat="48.00759" lon="2.89033">
        <ele>139</ele>
        <time>2013-09-22T14:52:24Z</time>
      </trkpt>
      <trkpt lat="48.00781" lon="2.89037">
        <ele>139</ele>
        <time>2013-09-22T14:52:25Z</time>
      </trkpt>
      <trkpt lat="48.00803" lon="2.89042">
        <ele>140</ele>
        <time>2013-09-22T14:52:26Z</time>
      </trkpt>
      <trkpt lat="48.00825" lon="2.89046">
        <ele>140</ele>
        <time>2013-09-22T14:52:27Z</time>
      </trkpt>
      <trkpt lat="48.00846" lon="2.8905">
        <ele>140</ele>
        <time>2013-09-22T14:52:28Z</time>
      </trkpt>
      <trkpt lat="48.00864" lon="2.89054">
        <ele>140</ele>
        <time>2013-09-22T14:52:29Z</time>
      </trkpt>
      <trkpt lat="48.00902" lon="2.89065">
        <ele>140</ele>
        <time>2013-09-22T14:52:32Z</time>
      </trkpt>
      <trkpt lat="48.00918" lon="2.89087">
        <ele>139</ele>
        <time>2013-09-22T14:52:34Z</time>
      </trkpt>
      <trkpt lat="48.00928" lon="2.89132">
        <ele>139</ele>
        <time>2013-09-22T14:52:36Z</time>
      </trkpt>
      <trkpt lat="48.00934" lon="2.89159">
        <ele>139</ele>
        <time>2013-09-22T14:52:37Z</time>
      </trkpt>
      <trkpt lat="48.00949" lon="2.89206">
        <ele>138</ele>
        <time>2013-09-22T14:52:39Z</time>
      </trkpt>
      <trkpt lat="48.00967" lon="2.89249">
        <ele>137</ele>
        <time>2013-09-22T14:52:41Z</time>
      </trkpt>
      <trkpt lat="48.00987" lon="2.8929">
        <ele>137</ele>
        <time>2013-09-22T14:52:43Z</time>
      </trkpt>
      <trkpt lat="48.01006" lon="2.89329">
        <ele>136</ele>
        <time>2013-09-22T14:52:45Z</time>
      </trkpt>
      <trkpt lat="48.01023" lon="2.89366">
        <ele>135</ele>
        <time>2013-09-22T14:52:47Z</time>
      </trkpt>
      <trkpt lat="48.01038" lon="2.894">
        <ele>134</ele>
        <time>2013-09-22T14:52:49Z</time>
      </trkpt>
      <trkpt lat="48.01052" lon="2.89428">
        <ele>133</ele>
        <time>2013-09-22T14:52:51Z</time>
      </trkpt>
      <trkpt lat="48.01064" lon="2.89456">
        <ele>132</ele>
        <time>2013-09-22T14:52:54Z</time>
      </trkpt>
      <trkpt lat="48.01059" lon="2.89483">
        <ele>135</ele>
        <time>2013-09-22T14:52:57Z</time>
      </trkpt>
      <trkpt lat="48.01038" lon="2.89496">
        <ele>135</ele>
        <time>2013-09-22T14:52:59Z</time>
      </trkpt>
      <trkpt lat="48.01014" lon="2.89514">
        <ele>134</ele>
        <time>2013-09-22T14:53:01Z</time>
      </trkpt>
      <trkpt lat="48.00994" lon="2.89548">
        <ele>133</ele>
        <time>2013-09-22T14:53:03Z</time>
      </trkpt>
      <trkpt lat="48.00978" lon="2.89593">
        <ele>132</ele>
        <time>2013-09-22T14:53:05Z</time>
      </trkpt>
      <trkpt lat="48.00964" lon="2.8964">
        <ele>132</ele>
        <time>2013-09-22T14:53:07Z</time>
      </trkpt>
      <trkpt lat="48.0095" lon="2.89686">
        <ele>132</ele>
        <time>2013-09-22T14:53:09Z</time>
      </trkpt>
      <trkpt lat="48.00935" lon="2.89733">
        <ele>132</ele>
        <time>2013-09-22T14:53:11Z</time>
      </trkpt>
      <trkpt lat="48.00928" lon="2.89758">
        <ele>132</ele>
        <time>2013-09-22T14:53:12Z</time>
      </trkpt>
      <trkpt lat="48.00922" lon="2.89783">
        <ele>132</ele>
        <time>2013-09-22T14:53:13Z</time>
      </trkpt>
      <trkpt lat="48.00915" lon="2.8981">
        <ele>131</ele>
        <time>2013-09-22T14:53:14Z</time>
      </trkpt>
      <trkpt lat="48.00909" lon="2.89838">
        <ele>131</ele>
        <time>2013-09-22T14:53:15Z</time>
      </trkpt>
      <trkpt lat="48.00902" lon="2.89868">
        <ele>131</ele>
        <time>2013-09-22T14:53:16Z</time>
      </trkpt>
      <trkpt lat="48.00894" lon="2.89899">
        <ele>129</ele>
        <time>2013-09-22T14:53:17Z</time>
      </trkpt>
      <trkpt lat="48.00888" lon="2.89928">
        <ele>128</ele>
        <time>2013-09-22T14:53:18Z</time>
      </trkpt>
      <trkpt lat="48.00881" lon="2.89959">
        <ele>129</ele>
        <time>2013-09-22T14:53:19Z</time>
      </trkpt>
      <trkpt lat="48.00875" lon="2.8999">
        <ele>129</ele>
        <time>2013-09-22T14:53:20Z</time>
      </trkpt>
      <trkpt lat="48.00868" lon="2.90021">
        <ele>130</ele>
        <time>2013-09-22T14:53:21Z</time>
      </trkpt>
      <trkpt lat="48.0086" lon="2.90053">
        <ele>130</ele>
        <time>2013-09-22T14:53:22Z</time>
      </trkpt>
      <trkpt lat="48.00852" lon="2.90085">
        <ele>130</ele>
        <time>2013-09-22T14:53:23Z</time>
      </trkpt>
      <trkpt lat="48.00845" lon="2.90118">
        <ele>131</ele>
        <time>2013-09-22T14:53:24Z</time>
      </trkpt>
      <trkpt lat="48.00838" lon="2.9015">
        <ele>132</ele>
        <time>2013-09-22T14:53:25Z</time>
      </trkpt>
      <trkpt lat="48.00831" lon="2.90182">
        <ele>131</ele>
        <time>2013-09-22T14:53:26Z</time>
      </trkpt>
      <trkpt lat="48.00823" lon="2.90213">
        <ele>132</ele>
        <time>2013-09-22T14:53:27Z</time>
      </trkpt>
      <trkpt lat="48.00813" lon="2.90241">
        <ele>132</ele>
        <time>2013-09-22T14:53:28Z</time>
      </trkpt>
      <trkpt lat="48.00799" lon="2.90266">
        <ele>131</ele>
        <time>2013-09-22T14:53:29Z</time>
      </trkpt>
      <trkpt lat="48.00784" lon="2.9029">
        <ele>131</ele>
        <time>2013-09-22T14:53:30Z</time>
      </trkpt>
      <trkpt lat="48.00766" lon="2.90314">
        <ele>130</ele>
        <time>2013-09-22T14:53:31Z</time>
      </trkpt>
      <trkpt lat="48.00749" lon="2.90338">
        <ele>129</ele>
        <time>2013-09-22T14:53:32Z</time>
      </trkpt>
      <trkpt lat="48.00731" lon="2.90362">
        <ele>128</ele>
        <time>2013-09-22T14:53:33Z</time>
      </trkpt>
      <trkpt lat="48.00714" lon="2.90385">
        <ele>127</ele>
        <time>2013-09-22T14:53:34Z</time>
      </trkpt>
      <trkpt lat="48.00698" lon="2.90407">
        <ele>126</ele>
        <time>2013-09-22T14:53:35Z</time>
      </trkpt>
      <trkpt lat="48.0068" lon="2.90429">
        <ele>126</ele>
        <time>2013-09-22T14:53:36Z</time>
      </trkpt>
      <trkpt lat="48.00663" lon="2.90452">
        <ele>127</ele>
        <time>2013-09-22T14:53:37Z</time>
      </trkpt>
      <trkpt lat="48.00645" lon="2.90475">
        <ele>127</ele>
        <time>2013-09-22T14:53:38Z</time>
      </trkpt>
      <trkpt lat="48.00628" lon="2.90498">
        <ele>127</ele>
        <time>2013-09-22T14:53:39Z</time>
      </trkpt>
      <trkpt lat="48.00611" lon="2.90521">
        <ele>127</ele>
        <time>2013-09-22T14:53:40Z</time>
      </trkpt>
      <trkpt lat="48.00594" lon="2.90543">
        <ele>127</ele>
        <time>2013-09-22T14:53:41Z</time>
      </trkpt>
      <trkpt lat="48.00577" lon="2.90567">
        <ele>127</ele>
        <time>2013-09-22T14:53:42Z</time>
      </trkpt>
      <trkpt lat="48.00562" lon="2.9059">
        <ele>127</ele>
        <time>2013-09-22T14:53:43Z</time>
      </trkpt>
      <trkpt lat="48.00546" lon="2.9061">
        <ele>128</ele>
        <time>2013-09-22T14:53:44Z</time>
      </trkpt>
      <trkpt lat="48.00532" lon="2.90629">
        <ele>127</ele>
        <time>2013-09-22T14:53:45Z</time>
      </trkpt>
      <trkpt lat="48.00521" lon="2.90651">
        <ele>126</ele>
        <time>2013-09-22T14:53:46Z</time>
      </trkpt>
      <trkpt lat="48.00512" lon="2.90676">
        <ele>128</ele>
        <time>2013-09-22T14:53:47Z</time>
      </trkpt>
      <trkpt lat="48.00508" lon="2.90727">
        <ele>129</ele>
        <time>2013-09-22T14:53:49Z</time>
      </trkpt>
      <trkpt lat="48.0051" lon="2.90758">
        <ele>129</ele>
        <time>2013-09-22T14:53:50Z</time>
      </trkpt>
      <trkpt lat="48.00515" lon="2.90788">
        <ele>130</ele>
        <time>2013-09-22T14:53:51Z</time>
      </trkpt>
      <trkpt lat="48.00519" lon="2.90821">
        <ele>131</ele>
        <time>2013-09-22T14:53:52Z</time>
      </trkpt>
      <trkpt lat="48.00522" lon="2.90855">
        <ele>132</ele>
        <time>2013-09-22T14:53:53Z</time>
      </trkpt>
      <trkpt lat="48.00523" lon="2.9089">
        <ele>133</ele>
        <time>2013-09-22T14:53:54Z</time>
      </trkpt>
      <trkpt lat="48.00524" lon="2.90927">
        <ele>134</ele>
        <time>2013-09-22T14:53:55Z</time>
      </trkpt>
      <trkpt lat="48.00525" lon="2.90963">
        <ele>135</ele>
        <time>2013-09-22T14:53:56Z</time>
      </trkpt>
      <trkpt lat="48.00526" lon="2.91001">
        <ele>136</ele>
        <time>2013-09-22T14:53:57Z</time>
      </trkpt>
      <trkpt lat="48.00527" lon="2.91037">
        <ele>136</ele>
        <time>2013-09-22T14:53:58Z</time>
      </trkpt>
      <trkpt lat="48.00527" lon="2.91073">
        <ele>137</ele>
        <time>2013-09-22T14:53:59Z</time>
      </trkpt>
      <trkpt lat="48.00529" lon="2.91105">
        <ele>137</ele>
        <time>2013-09-22T14:54:00Z</time>
      </trkpt>
      <trkpt lat="48.0053" lon="2.91139">
        <ele>138</ele>
        <time>2013-09-22T14:54:01Z</time>
      </trkpt>
      <trkpt lat="48.00529" lon="2.91172">
        <ele>139</ele>
        <time>2013-09-22T14:54:02Z</time>
      </trkpt>
      <trkpt lat="48.00526" lon="2.91205">
        <ele>140</ele>
        <time>2013-09-22T14:54:03Z</time>
      </trkpt>
      <trkpt lat="48.00525" lon="2.91239">
        <ele>139</ele>
        <time>2013-09-22T14:54:04Z</time>
      </trkpt>
      <trkpt lat="48.00524" lon="2.91275">
        <ele>139</ele>
        <time>2013-09-22T14:54:05Z</time>
      </trkpt>
      <trkpt lat="48.00524" lon="2.91312">
        <ele>139</ele>
        <time>2013-09-22T14:54:06Z</time>
      </trkpt>
      <trkpt lat="48.00525" lon="2.91347">
        <ele>140</ele>
        <time>2013-09-22T14:54:07Z</time>
      </trkpt>
      <trkpt lat="48.00529" lon="2.91384">
        <ele>140</ele>
        <time>2013-09-22T14:54:08Z</time>
      </trkpt>
      <trkpt lat="48.00533" lon="2.91421">
        <ele>139</ele>
        <time>2013-09-22T14:54:09Z</time>
      </trkpt>
      <trkpt lat="48.00535" lon="2.91459">
        <ele>140</ele>
        <time>2013-09-22T14:54:10Z</time>
      </trkpt>
      <trkpt lat="48.00536" lon="2.91496">
        <ele>140</ele>
        <time>2013-09-22T14:54:11Z</time>
      </trkpt>
      <trkpt lat="48.00538" lon="2.91531">
        <ele>138</ele>
        <time>2013-09-22T14:54:12Z</time>
      </trkpt>
      <trkpt lat="48.00537" lon="2.91569">
        <ele>139</ele>
        <time>2013-09-22T14:54:13Z</time>
      </trkpt>
      <trkpt lat="48.00537" lon="2.91608">
        <ele>140</ele>
        <time>2013-09-22T14:54:14Z</time>
      </trkpt>
      <trkpt lat="48.00537" lon="2.91647">
        <ele>140</ele>
        <time>2013-09-22T14:54:15Z</time>
      </trkpt>
      <trkpt lat="48.00537" lon="2.91686">
        <ele>141</ele>
        <time>2013-09-22T14:54:16Z</time>
      </trkpt>
      <trkpt lat="48.00538" lon="2.91725">
        <ele>141</ele>
        <time>2013-09-22T14:54:17Z</time>
      </trkpt>
      <trkpt lat="48.00539" lon="2.91763">
        <ele>142</ele>
        <time>2013-09-22T14:54:18Z</time>
      </trkpt>
      <trkpt lat="48.0054" lon="2.91801">
        <ele>143</ele>
        <time>2013-09-22T14:54:19Z</time>
      </trkpt>
      <trkpt lat="48.00542" lon="2.9184">
        <ele>143</ele>
        <time>2013-09-22T14:54:20Z</time>
      </trkpt>
      <trkpt lat="48.00544" lon="2.91878">
        <ele>143</ele>
        <time>2013-09-22T14:54:21Z</time>
      </trkpt>
      <trkpt lat="48.00546" lon="2.91916">
        <ele>144</ele>
        <time>2013-09-22T14:54:22Z</time>
      </trkpt>
      <trkpt lat="48.00548" lon="2.91954">
        <ele>143</ele>
        <time>2013-09-22T14:54:23Z</time>
      </trkpt>
      <trkpt lat="48.00549" lon="2.91992">
        <ele>145</ele>
        <time>2013-09-22T14:54:24Z</time>
      </trkpt>
      <trkpt lat="48.00551" lon="2.92029">
        <ele>146</ele>
        <time>2013-09-22T14:54:25Z</time>
      </trkpt>
      <trkpt lat="48.00553" lon="2.92063">
        <ele>146</ele>
        <time>2013-09-22T14:54:26Z</time>
      </trkpt>
      <trkpt lat="48.00555" lon="2.92096">
        <ele>146</ele>
        <time>2013-09-22T14:54:27Z</time>
      </trkpt>
      <trkpt lat="48.00555" lon="2.9213">
        <ele>146</ele>
        <time>2013-09-22T14:54:28Z</time>
      </trkpt>
      <trkpt lat="48.0055" lon="2.92164">
        <ele>147</ele>
        <time>2013-09-22T14:54:29Z</time>
      </trkpt>
      <trkpt lat="48.00545" lon="2.92196">
        <ele>147</ele>
        <time>2013-09-22T14:54:30Z</time>
      </trkpt>
      <trkpt lat="48.00537" lon="2.92229">
        <ele>148</ele>
        <time>2013-09-22T14:54:31Z</time>
      </trkpt>
      <trkpt lat="48.00529" lon="2.92264">
        <ele>148</ele>
        <time>2013-09-22T14:54:32Z</time>
      </trkpt>
      <trkpt lat="48.00521" lon="2.92299">
        <ele>149</ele>
        <time>2013-09-22T14:54:33Z</time>
      </trkpt>
      <trkpt lat="48.00511" lon="2.92332">
        <ele>151</ele>
        <time>2013-09-22T14:54:34Z</time>
      </trkpt>
      <trkpt lat="48.00501" lon="2.92365">
        <ele>154</ele>
        <time>2013-09-22T14:54:35Z</time>
      </trkpt>
      <trkpt lat="48.0049" lon="2.92401">
        <ele>154</ele>
        <time>2013-09-22T14:54:36Z</time>
      </trkpt>
      <trkpt lat="48.00478" lon="2.92437">
        <ele>154</ele>
        <time>2013-09-22T14:54:37Z</time>
      </trkpt>
      <trkpt lat="48.00466" lon="2.92472">
        <ele>155</ele>
        <time>2013-09-22T14:54:38Z</time>
      </trkpt>
      <trkpt lat="48.00457" lon="2.92506">
        <ele>157</ele>
        <time>2013-09-22T14:54:39Z</time>
      </trkpt>
      <trkpt lat="48.00449" lon="2.92536">
        <ele>155</ele>
        <time>2013-09-22T14:54:40Z</time>
      </trkpt>
      <trkpt lat="48.00442" lon="2.92568">
        <ele>153</ele>
        <time>2013-09-22T14:54:41Z</time>
      </trkpt>
      <trkpt lat="48.00435" lon="2.92601">
        <ele>154</ele>
        <time>2013-09-22T14:54:42Z</time>
      </trkpt>
      <trkpt lat="48.00426" lon="2.92634">
        <ele>155</ele>
        <time>2013-09-22T14:54:43Z</time>
      </trkpt>
      <trkpt lat="48.00417" lon="2.92665">
        <ele>156</ele>
        <time>2013-09-22T14:54:44Z</time>
      </trkpt>
      <trkpt lat="48.00409" lon="2.92697">
        <ele>156</ele>
        <time>2013-09-22T14:54:45Z</time>
      </trkpt>
      <trkpt lat="48.00402" lon="2.92728">
        <ele>156</ele>
        <time>2013-09-22T14:54:46Z</time>
      </trkpt>
      <trkpt lat="48.00397" lon="2.92762">
        <ele>155</ele>
        <time>2013-09-22T14:54:47Z</time>
      </trkpt>
      <trkpt lat="48.00395" lon="2.92792">
        <ele>154</ele>
        <time>2013-09-22T14:54:48Z</time>
      </trkpt>
      <trkpt lat="48.00391" lon="2.92823">
        <ele>154</ele>
        <time>2013-09-22T14:54:49Z</time>
      </trkpt>
      <trkpt lat="48.00394" lon="2.92854">
        <ele>155</ele>
        <time>2013-09-22T14:54:50Z</time>
      </trkpt>
      <trkpt lat="48.00398" lon="2.92885">
        <ele>153</ele>
        <time>2013-09-22T14:54:51Z</time>
      </trkpt>
      <trkpt lat="48.00401" lon="2.92915">
        <ele>151</ele>
        <time>2013-09-22T14:54:52Z</time>
      </trkpt>
      <trkpt lat="48.00406" lon="2.92946">
        <ele>151</ele>
        <time>2013-09-22T14:54:53Z</time>
      </trkpt>
      <trkpt lat="48.00419" lon="2.92974">
        <ele>152</ele>
        <time>2013-09-22T14:54:54Z</time>
      </trkpt>
      <trkpt lat="48.0043" lon="2.93004">
        <ele>152</ele>
        <time>2013-09-22T14:54:55Z</time>
      </trkpt>
      <trkpt lat="48.00442" lon="2.9303">
        <ele>151</ele>
        <time>2013-09-22T14:54:56Z</time>
      </trkpt>
      <trkpt lat="48.00454" lon="2.93058">
        <ele>151</ele>
        <time>2013-09-22T14:54:57Z</time>
      </trkpt>
      <trkpt lat="48.00465" lon="2.93088">
        <ele>149</ele>
        <time>2013-09-22T14:54:58Z</time>
      </trkpt>
      <trkpt lat="48.00475" lon="2.9312">
        <ele>148</ele>
        <time>2013-09-22T14:54:59Z</time>
      </trkpt>
      <trkpt lat="48.00484" lon="2.93152">
        <ele>148</ele>
        <time>2013-09-22T14:55:00Z</time>
      </trkpt>
      <trkpt lat="48.0049" lon="2.93188">
        <ele>146</ele>
        <time>2013-09-22T14:55:01Z</time>
      </trkpt>
      <trkpt lat="48.00496" lon="2.93224">
        <ele>145</ele>
        <time>2013-09-22T14:55:02Z</time>
      </trkpt>
      <trkpt lat="48.005" lon="2.93261">
        <ele>144</ele>
        <time>2013-09-22T14:55:03Z</time>
      </trkpt>
      <trkpt lat="48.00505" lon="2.93298">
        <ele>145</ele>
        <time>2013-09-22T14:55:04Z</time>
      </trkpt>
      <trkpt lat="48.0051" lon="2.93339">
        <ele>144</ele>
        <time>2013-09-22T14:55:05Z</time>
      </trkpt>
      <trkpt lat="48.00517" lon="2.9338">
        <ele>144</ele>
        <time>2013-09-22T14:55:06Z</time>
      </trkpt>
      <trkpt lat="48.00524" lon="2.93422">
        <ele>146</ele>
        <time>2013-09-22T14:55:07Z</time>
      </trkpt>
      <trkpt lat="48.00529" lon="2.93465">
        <ele>148</ele>
        <time>2013-09-22T14:55:08Z</time>
      </trkpt>
      <trkpt lat="48.00535" lon="2.93508">
        <ele>150</ele>
        <time>2013-09-22T14:55:09Z</time>
      </trkpt>
      <trkpt lat="48.0054" lon="2.93552">
        <ele>151</ele>
        <time>2013-09-22T14:55:10Z</time>
      </trkpt>
      <trkpt lat="48.00546" lon="2.93595">
        <ele>153</ele>
        <time>2013-09-22T14:55:11Z</time>
      </trkpt>
      <trkpt lat="48.00552" lon="2.93635">
        <ele>153</ele>
        <time>2013-09-22T14:55:12Z</time>
      </trkpt>
      <trkpt lat="48.00559" lon="2.93677">
        <ele>153</ele>
        <time>2013-09-22T14:55:13Z</time>
      </trkpt>
      <trkpt lat="48.00565" lon="2.93719">
        <ele>154</ele>
        <time>2013-09-22T14:55:14Z</time>
      </trkpt>
      <trkpt lat="48.0057" lon="2.9376">
        <ele>154</ele>
        <time>2013-09-22T14:55:15Z</time>
      </trkpt>
      <trkpt lat="48.00576" lon="2.93801">
        <ele>154</ele>
        <time>2013-09-22T14:55:16Z</time>
      </trkpt>
      <trkpt lat="48.00582" lon="2.93844">
        <ele>155</ele>
        <time>2013-09-22T14:55:17Z</time>
      </trkpt>
      <trkpt lat="48.00587" lon="2.93886">
        <ele>155</ele>
        <time>2013-09-22T14:55:18Z</time>
      </trkpt>
      <trkpt lat="48.00594" lon="2.93928">
        <ele>155</ele>
        <time>2013-09-22T14:55:19Z</time>
      </trkpt>
      <trkpt lat="48.006" lon="2.9397">
        <ele>155</ele>
        <time>2013-09-22T14:55:20Z</time>
      </trkpt>
      <trkpt lat="48.00605" lon="2.94012">
        <ele>154</ele>
        <time>2013-09-22T14:55:21Z</time>
      </trkpt>
      <trkpt lat="48.00612" lon="2.94054">
        <ele>153</ele>
        <time>2013-09-22T14:55:22Z</time>
      </trkpt>
      <trkpt lat="48.00618" lon="2.94095">
        <ele>153</ele>
        <time>2013-09-22T14:55:23Z</time>
      </trkpt>
      <trkpt lat="48.00623" lon="2.94137">
        <ele>153</ele>
        <time>2013-09-22T14:55:24Z</time>
      </trkpt>
      <trkpt lat="48.00629" lon="2.94177">
        <ele>153</ele>
        <time>2013-09-22T14:55:25Z</time>
      </trkpt>
      <trkpt lat="48.00634" lon="2.94218">
        <ele>153</ele>
        <time>2013-09-22T14:55:26Z</time>
      </trkpt>
      <trkpt lat="48.0064" lon="2.94257">
        <ele>154</ele>
        <time>2013-09-22T14:55:27Z</time>
      </trkpt>
      <trkpt lat="48.00645" lon="2.94296">
        <ele>154</ele>
        <time>2013-09-22T14:55:28Z</time>
      </trkpt>
      <trkpt lat="48.00649" lon="2.94334">
        <ele>154</ele>
        <time>2013-09-22T14:55:29Z</time>
      </trkpt>
      <trkpt lat="48.00654" lon="2.94372">
        <ele>153</ele>
        <time>2013-09-22T14:55:30Z</time>
      </trkpt>
      <trkpt lat="48.00653" lon="2.94412">
        <ele>153</ele>
        <time>2013-09-22T14:55:31Z</time>
      </trkpt>
      <trkpt lat="48.00651" lon="2.94453">
        <ele>153</ele>
        <time>2013-09-22T14:55:32Z</time>
      </trkpt>
      <trkpt lat="48.00646" lon="2.94493">
        <ele>153</ele>
        <time>2013-09-22T14:55:33Z</time>
      </trkpt>
      <trkpt lat="48.00641" lon="2.94534">
        <ele>154</ele>
        <time>2013-09-22T14:55:34Z</time>
      </trkpt>
      <trkpt lat="48.00637" lon="2.94575">
        <ele>155</ele>
        <time>2013-09-22T14:55:35Z</time>
      </trkpt>
      <trkpt lat="48.00627" lon="2.94652">
        <ele>156</ele>
        <time>2013-09-22T14:55:37Z</time>
      </trkpt>
      <trkpt lat="48.00617" lon="2.94724">
        <ele>155</ele>
        <time>2013-09-22T14:55:39Z</time>
      </trkpt>
      <trkpt lat="48.00607" lon="2.94794">
        <ele>155</ele>
        <time>2013-09-22T14:55:41Z</time>
      </trkpt>
      <trkpt lat="48.00602" lon="2.94828">
        <ele>156</ele>
        <time>2013-09-22T14:55:42Z</time>
      </trkpt>
      <trkpt lat="48.00598" lon="2.94862">
        <ele>156</ele>
        <time>2013-09-22T14:55:43Z</time>
      </trkpt>
      <trkpt lat="48.00593" lon="2.94897">
        <ele>156</ele>
        <time>2013-09-22T14:55:44Z</time>
      </trkpt>
      <trkpt lat="48.0059" lon="2.94931">
        <ele>156</ele>
        <time>2013-09-22T14:55:45Z</time>
      </trkpt>
      <trkpt lat="48.00589" lon="2.94964">
        <ele>157</ele>
        <time>2013-09-22T14:55:46Z</time>
      </trkpt>
      <trkpt lat="48.00589" lon="2.94995">
        <ele>156</ele>
        <time>2013-09-22T14:55:47Z</time>
      </trkpt>
      <trkpt lat="48.00589" lon="2.95027">
        <ele>156</ele>
        <time>2013-09-22T14:55:48Z</time>
      </trkpt>
      <trkpt lat="48.00588" lon="2.95056">
        <ele>155</ele>
        <time>2013-09-22T14:55:49Z</time>
      </trkpt>
      <trkpt lat="48.00589" lon="2.95088">
        <ele>156</ele>
        <time>2013-09-22T14:55:50Z</time>
      </trkpt>
      <trkpt lat="48.00589" lon="2.95118">
        <ele>156</ele>
        <time>2013-09-22T14:55:51Z</time>
      </trkpt>
      <trkpt lat="48.00589" lon="2.95148">
        <ele>155</ele>
        <time>2013-09-22T14:55:52Z</time>
      </trkpt>
      <trkpt lat="48.00589" lon="2.95177">
        <ele>155</ele>
        <time>2013-09-22T14:55:53Z</time>
      </trkpt>
      <trkpt lat="48.00586" lon="2.95207">
        <ele>155</ele>
        <time>2013-09-22T14:55:54Z</time>
      </trkpt>
      <trkpt lat="48.00582" lon="2.95238">
        <ele>155</ele>
        <time>2013-09-22T14:55:55Z</time>
      </trkpt>
      <trkpt lat="48.00576" lon="2.95266">
        <ele>156</ele>
        <time>2013-09-22T14:55:56Z</time>
      </trkpt>
      <trkpt lat="48.00571" lon="2.95294">
        <ele>155</ele>
        <time>2013-09-22T14:55:57Z</time>
      </trkpt>
      <trkpt lat="48.00566" lon="2.95324">
        <ele>155</ele>
        <time>2013-09-22T14:55:58Z</time>
      </trkpt>
      <trkpt lat="48.00561" lon="2.95353">
        <ele>155</ele>
        <time>2013-09-22T14:55:59Z</time>
      </trkpt>
      <trkpt lat="48.00558" lon="2.95382">
        <ele>155</ele>
        <time>2013-09-22T14:56:00Z</time>
      </trkpt>
      <trkpt lat="48.00559" lon="2.95413">
        <ele>155</ele>
        <time>2013-09-22T14:56:01Z</time>
      </trkpt>
      <trkpt lat="48.00559" lon="2.95443">
        <ele>156</ele>
        <time>2013-09-22T14:56:02Z</time>
      </trkpt>
      <trkpt lat="48.00562" lon="2.95472">
        <ele>156</ele>
        <time>2013-09-22T14:56:03Z</time>
      </trkpt>
      <trkpt lat="48.00566" lon="2.95501">
        <ele>156</ele>
        <time>2013-09-22T14:56:04Z</time>
      </trkpt>
      <trkpt lat="48.00572" lon="2.9553">
        <ele>156</ele>
        <time>2013-09-22T14:56:05Z</time>
      </trkpt>
      <trkpt lat="48.00577" lon="2.95558">
        <ele>156</ele>
        <time>2013-09-22T14:56:06Z</time>
      </trkpt>
      <trkpt lat="48.00583" lon="2.95587">
        <ele>156</ele>
        <time>2013-09-22T14:56:07Z</time>
      </trkpt>
      <trkpt lat="48.00589" lon="2.95616">
        <ele>156</ele>
        <time>2013-09-22T14:56:08Z</time>
      </trkpt>
      <trkpt lat="48.00594" lon="2.95645">
        <ele>157</ele>
        <time>2013-09-22T14:56:09Z</time>
      </trkpt>
      <trkpt lat="48.006" lon="2.95672">
        <ele>157</ele>
        <time>2013-09-22T14:56:10Z</time>
      </trkpt>
      <trkpt lat="48.0061" lon="2.95722">
        <ele>157</ele>
        <time>2013-09-22T14:56:12Z</time>
      </trkpt>
      <trkpt lat="48.00618" lon="2.95768">
        <ele>157</ele>
        <time>2013-09-22T14:56:14Z</time>
      </trkpt>
      <trkpt lat="48.00624" lon="2.95813">
        <ele>156</ele>
        <time>2013-09-22T14:56:16Z</time>
      </trkpt>
      <trkpt lat="48.0063" lon="2.95857">
        <ele>156</ele>
        <time>2013-09-22T14:56:18Z</time>
      </trkpt>
      <trkpt lat="48.00636" lon="2.95903">
        <ele>156</ele>
        <time>2013-09-22T14:56:20Z</time>
      </trkpt>
      <trkpt lat="48.00641" lon="2.95946">
        <ele>155</ele>
        <time>2013-09-22T14:56:22Z</time>
      </trkpt>
      <trkpt lat="48.00646" lon="2.95985">
        <ele>156</ele>
        <time>2013-09-22T14:56:24Z</time>
      </trkpt>
      <trkpt lat="48.00649" lon="2.96022">
        <ele>155</ele>
        <time>2013-09-22T14:56:26Z</time>
      </trkpt>
      <trkpt lat="48.00647" lon="2.96056">
        <ele>155</ele>
        <time>2013-09-22T14:56:28Z</time>
      </trkpt>
      <trkpt lat="48.00642" lon="2.96085">
        <ele>155</ele>
        <time>2013-09-22T14:56:30Z</time>
      </trkpt>
      <trkpt lat="48.00634" lon="2.96113">
        <ele>154</ele>
        <time>2013-09-22T14:56:32Z</time>
      </trkpt>
      <trkpt lat="48.00623" lon="2.96146">
        <ele>154</ele>
        <time>2013-09-22T14:56:34Z</time>
      </trkpt>
      <trkpt lat="48.00611" lon="2.96177">
        <ele>154</ele>
        <time>2013-09-22T14:56:36Z</time>
      </trkpt>
      <trkpt lat="48.00597" lon="2.96203">
        <ele>154</ele>
        <time>2013-09-22T14:56:38Z</time>
      </trkpt>
      <trkpt lat="48.00584" lon="2.96226">
        <ele>155</ele>
        <time>2013-09-22T14:56:40Z</time>
      </trkpt>
      <trkpt lat="48.0057" lon="2.96248">
        <ele>156</ele>
        <time>2013-09-22T14:56:42Z</time>
      </trkpt>
      <trkpt lat="48.00553" lon="2.96275">
        <ele>156</ele>
        <time>2013-09-22T14:56:45Z</time>
      </trkpt>
      <trkpt lat="48.00535" lon="2.96305">
        <ele>155</ele>
        <time>2013-09-22T14:56:48Z</time>
      </trkpt>
      <trkpt lat="48.0052" lon="2.96328">
        <ele>154</ele>
        <time>2013-09-22T14:56:50Z</time>
      </trkpt>
      <trkpt lat="48.00507" lon="2.96353">
        <ele>152</ele>
        <time>2013-09-22T14:56:52Z</time>
      </trkpt>
      <trkpt lat="48.00494" lon="2.96375">
        <ele>151</ele>
        <time>2013-09-22T14:56:54Z</time>
      </trkpt>
      <trkpt lat="48.00476" lon="2.96402">
        <ele>152</ele>
        <time>2013-09-22T14:56:57Z</time>
      </trkpt>
      <trkpt lat="48.00458" lon="2.9643">
        <ele>153</ele>
        <time>2013-09-22T14:57:01Z</time>
      </trkpt>
      <trkpt lat="48.00441" lon="2.9646">
        <ele>156</ele>
        <time>2013-09-22T14:57:04Z</time>
      </trkpt>
      <trkpt lat="48.00426" lon="2.96486">
        <ele>156</ele>
        <time>2013-09-22T14:57:06Z</time>
      </trkpt>
      <trkpt lat="48.0041" lon="2.96517">
        <ele>157</ele>
        <time>2013-09-22T14:57:08Z</time>
      </trkpt>
      <trkpt lat="48.00394" lon="2.96547">
        <ele>157</ele>
        <time>2013-09-22T14:57:10Z</time>
      </trkpt>
      <trkpt lat="48.00378" lon="2.96584">
        <ele>166</ele>
        <time>2013-09-22T14:57:12Z</time>
      </trkpt>
      <trkpt lat="48.00367" lon="2.96607">
        <ele>166</ele>
        <time>2013-09-22T14:57:14Z</time>
      </trkpt>
      <trkpt lat="48.00359" lon="2.96632">
        <ele>163</ele>
        <time>2013-09-22T14:57:17Z</time>
      </trkpt>
      <trkpt lat="48.00337" lon="2.9664">
        <ele>159</ele>
        <time>2013-09-22T14:57:23Z</time>
      </trkpt>
      <trkpt lat="48.00318" lon="2.96631">
        <ele>151</ele>
        <time>2013-09-22T14:57:31Z</time>
      </trkpt>
      <trkpt lat="48.00305" lon="2.966">
        <ele>154</ele>
        <time>2013-09-22T14:57:34Z</time>
      </trkpt>
      <trkpt lat="48.00289" lon="2.96578">
        <ele>155</ele>
        <time>2013-09-22T14:57:36Z</time>
      </trkpt>
      <trkpt lat="48.00273" lon="2.96559">
        <ele>157</ele>
        <time>2013-09-22T14:57:38Z</time>
      </trkpt>
      <trkpt lat="48.00256" lon="2.96534">
        <ele>156</ele>
        <time>2013-09-22T14:57:40Z</time>
      </trkpt>
      <trkpt lat="48.00233" lon="2.96508">
        <ele>156</ele>
        <time>2013-09-22T14:57:42Z</time>
      </trkpt>
      <trkpt lat="48.0021" lon="2.96497">
        <ele>155</ele>
        <time>2013-09-22T14:57:44Z</time>
      </trkpt>
      <trkpt lat="48.00186" lon="2.96478">
        <ele>156</ele>
        <time>2013-09-22T14:57:46Z</time>
      </trkpt>
      <trkpt lat="48.00161" lon="2.96462">
        <ele>158</ele>
        <time>2013-09-22T14:57:48Z</time>
      </trkpt>
      <trkpt lat="48.00141" lon="2.96447">
        <ele>159</ele>
        <time>2013-09-22T14:57:50Z</time>
      </trkpt>
      <trkpt lat="48.00118" lon="2.9643">
        <ele>160</ele>
        <time>2013-09-22T14:57:52Z</time>
      </trkpt>
      <trkpt lat="48.00096" lon="2.96414">
        <ele>159</ele>
        <time>2013-09-22T14:57:54Z</time>
      </trkpt>
      <trkpt lat="48.00077" lon="2.964">
        <ele>156</ele>
        <time>2013-09-22T14:57:56Z</time>
      </trkpt>
      <trkpt lat="48.00057" lon="2.96386">
        <ele>154</ele>
        <time>2013-09-22T14:57:58Z</time>
      </trkpt>
      <trkpt lat="48.00039" lon="2.96371">
        <ele>157</ele>
        <time>2013-09-22T14:58:00Z</time>
      </trkpt>
      <trkpt lat="48.00022" lon="2.96361">
        <ele>160</ele>
        <time>2013-09-22T14:58:02Z</time>
      </trkpt>
      <trkpt lat="48" lon="2.96342">
        <ele>159</ele>
        <time>2013-09-22T14:58:05Z</time>
      </trkpt>
      <trkpt lat="47.99973" lon="2.96326">
        <ele>161</ele>
        <time>2013-09-22T14:58:07Z</time>
      </trkpt>
      <trkpt lat="47.99947" lon="2.96304">
        <ele>161</ele>
        <time>2013-09-22T14:58:09Z</time>
      </trkpt>
      <trkpt lat="47.9993" lon="2.9629">
        <ele>161</ele>
        <time>2013-09-22T14:58:10Z</time>
      </trkpt>
      <trkpt lat="47.99913" lon="2.96277">
        <ele>161</ele>
        <time>2013-09-22T14:58:11Z</time>
      </trkpt>
      <trkpt lat="47.99894" lon="2.96265">
        <ele>162</ele>
        <time>2013-09-22T14:58:12Z</time>
      </trkpt>
      <trkpt lat="47.99876" lon="2.96253">
        <ele>161</ele>
        <time>2013-09-22T14:58:13Z</time>
      </trkpt>
      <trkpt lat="47.99856" lon="2.96241">
        <ele>161</ele>
        <time>2013-09-22T14:58:14Z</time>
      </trkpt>
      <trkpt lat="47.99833" lon="2.96231">
        <ele>162</ele>
        <time>2013-09-22T14:58:15Z</time>
      </trkpt>
      <trkpt lat="47.9981" lon="2.96222">
        <ele>161</ele>
        <time>2013-09-22T14:58:16Z</time>
      </trkpt>
      <trkpt lat="47.99787" lon="2.96212">
        <ele>162</ele>
        <time>2013-09-22T14:58:17Z</time>
      </trkpt>
      <trkpt lat="47.99765" lon="2.96204">
        <ele>162</ele>
        <time>2013-09-22T14:58:18Z</time>
      </trkpt>
      <trkpt lat="47.99742" lon="2.96195">
        <ele>162</ele>
        <time>2013-09-22T14:58:19Z</time>
      </trkpt>
      <trkpt lat="47.99718" lon="2.96186">
        <ele>162</ele>
        <time>2013-09-22T14:58:20Z</time>
      </trkpt>
      <trkpt lat="47.99694" lon="2.96176">
        <ele>162</ele>
        <time>2013-09-22T14:58:21Z</time>
      </trkpt>
      <trkpt lat="47.99669" lon="2.96166">
        <ele>162</ele>
        <time>2013-09-22T14:58:22Z</time>
      </trkpt>
      <trkpt lat="47.99645" lon="2.96157">
        <ele>163</ele>
        <time>2013-09-22T14:58:23Z</time>
      </trkpt>
      <trkpt lat="47.99622" lon="2.96147">
        <ele>163</ele>
        <time>2013-09-22T14:58:24Z</time>
      </trkpt>
      <trkpt lat="47.99598" lon="2.96137">
        <ele>164</ele>
        <time>2013-09-22T14:58:25Z</time>
      </trkpt>
      <trkpt lat="47.99575" lon="2.96128">
        <ele>163</ele>
        <time>2013-09-22T14:58:26Z</time>
      </trkpt>
      <trkpt lat="47.99552" lon="2.96119">
        <ele>163</ele>
        <time>2013-09-22T14:58:27Z</time>
      </trkpt>
      <trkpt lat="47.99527" lon="2.9611">
        <ele>163</ele>
        <time>2013-09-22T14:58:28Z</time>
      </trkpt>
      <trkpt lat="47.99503" lon="2.96099">
        <ele>163</ele>
        <time>2013-09-22T14:58:29Z</time>
      </trkpt>
      <trkpt lat="47.99479" lon="2.96089">
        <ele>164</ele>
        <time>2013-09-22T14:58:30Z</time>
      </trkpt>
      <trkpt lat="47.99456" lon="2.96081">
        <ele>162</ele>
        <time>2013-09-22T14:58:31Z</time>
      </trkpt>
      <trkpt lat="47.99433" lon="2.96075">
        <ele>161</ele>
        <time>2013-09-22T14:58:32Z</time>
      </trkpt>
      <trkpt lat="47.9941" lon="2.96068">
        <ele>160</ele>
        <time>2013-09-22T14:58:33Z</time>
      </trkpt>
      <trkpt lat="47.99389" lon="2.96059">
        <ele>160</ele>
        <time>2013-09-22T14:58:34Z</time>
      </trkpt>
      <trkpt lat="47.99369" lon="2.96053">
        <ele>161</ele>
        <time>2013-09-22T14:58:35Z</time>
      </trkpt>
      <trkpt lat="47.99349" lon="2.96045">
        <ele>161</ele>
        <time>2013-09-22T14:58:36Z</time>
      </trkpt>
      <trkpt lat="47.9933" lon="2.96037">
        <ele>162</ele>
        <time>2013-09-22T14:58:37Z</time>
      </trkpt>
      <trkpt lat="47.99311" lon="2.9603">
        <ele>162</ele>
        <time>2013-09-22T14:58:38Z</time>
      </trkpt>
      <trkpt lat="47.99294" lon="2.96024">
        <ele>163</ele>
        <time>2013-09-22T14:58:39Z</time>
      </trkpt>
      <trkpt lat="47.99263" lon="2.96011">
        <ele>163</ele>
        <time>2013-09-22T14:58:41Z</time>
      </trkpt>
      <trkpt lat="47.99245" lon="2.95983">
        <ele>161</ele>
        <time>2013-09-22T14:58:43Z</time>
      </trkpt>
      <trkpt lat="47.99232" lon="2.95941">
        <ele>160</ele>
        <time>2013-09-22T14:58:45Z</time>
      </trkpt>
      <trkpt lat="47.99218" lon="2.95893">
        <ele>161</ele>
        <time>2013-09-22T14:58:47Z</time>
      </trkpt>
      <trkpt lat="47.9921" lon="2.95867">
        <ele>161</ele>
        <time>2013-09-22T14:58:48Z</time>
      </trkpt>
      <trkpt lat="47.99204" lon="2.95842">
        <ele>161</ele>
        <time>2013-09-22T14:58:49Z</time>
      </trkpt>
      <trkpt lat="47.99196" lon="2.95813">
        <ele>161</ele>
        <time>2013-09-22T14:58:50Z</time>
      </trkpt>
      <trkpt lat="47.99188" lon="2.95783">
        <ele>162</ele>
        <time>2013-09-22T14:58:51Z</time>
      </trkpt>
      <trkpt lat="47.99178" lon="2.95755">
        <ele>163</ele>
        <time>2013-09-22T14:58:52Z</time>
      </trkpt>
      <trkpt lat="47.9917" lon="2.95724">
        <ele>164</ele>
        <time>2013-09-22T14:58:53Z</time>
      </trkpt>
      <trkpt lat="47.99162" lon="2.95695">
        <ele>165</ele>
        <time>2013-09-22T14:58:54Z</time>
      </trkpt>
      <trkpt lat="47.99153" lon="2.95668">
        <ele>167</ele>
        <time>2013-09-22T14:58:55Z</time>
      </trkpt>
      <trkpt lat="47.99142" lon="2.95643">
        <ele>168</ele>
        <time>2013-09-22T14:58:56Z</time>
      </trkpt>
      <trkpt lat="47.99131" lon="2.95619">
        <ele>168</ele>
        <time>2013-09-22T14:58:57Z</time>
      </trkpt>
      <trkpt lat="47.99115" lon="2.95598">
        <ele>170</ele>
        <time>2013-09-22T14:58:58Z</time>
      </trkpt>
      <trkpt lat="47.991" lon="2.95578">
        <ele>170</ele>
        <time>2013-09-22T14:58:59Z</time>
      </trkpt>
      <trkpt lat="47.99084" lon="2.95555">
        <ele>171</ele>
        <time>2013-09-22T14:59:00Z</time>
      </trkpt>
      <trkpt lat="47.99074" lon="2.95529">
        <ele>171</ele>
        <time>2013-09-22T14:59:01Z</time>
      </trkpt>
      <trkpt lat="47.99062" lon="2.95505">
        <ele>171</ele>
        <time>2013-09-22T14:59:02Z</time>
      </trkpt>
      <trkpt lat="47.99052" lon="2.95477">
        <ele>170</ele>
        <time>2013-09-22T14:59:03Z</time>
      </trkpt>
      <trkpt lat="47.99042" lon="2.95447">
        <ele>169</ele>
        <time>2013-09-22T14:59:04Z</time>
      </trkpt>
      <trkpt lat="47.99034" lon="2.95419">
        <ele>170</ele>
        <time>2013-09-22T14:59:05Z</time>
      </trkpt>
      <trkpt lat="47.99024" lon="2.95392">
        <ele>169</ele>
        <time>2013-09-22T14:59:06Z</time>
      </trkpt>
      <trkpt lat="47.9901" lon="2.95367">
        <ele>171</ele>
        <time>2013-09-22T14:59:07Z</time>
      </trkpt>
      <trkpt lat="47.98995" lon="2.95343">
        <ele>170</ele>
        <time>2013-09-22T14:59:08Z</time>
      </trkpt>
      <trkpt lat="47.98979" lon="2.95319">
        <ele>170</ele>
        <time>2013-09-22T14:59:09Z</time>
      </trkpt>
      <trkpt lat="47.98946" lon="2.95271">
        <ele>171</ele>
        <time>2013-09-22T14:59:11Z</time>
      </trkpt>
      <trkpt lat="47.9891" lon="2.95223">
        <ele>171</ele>
        <time>2013-09-22T14:59:13Z</time>
      </trkpt>
      <trkpt lat="47.98877" lon="2.95178">
        <ele>171</ele>
        <time>2013-09-22T14:59:15Z</time>
      </trkpt>
      <trkpt lat="47.9886" lon="2.95156">
        <ele>170</ele>
        <time>2013-09-22T14:59:16Z</time>
      </trkpt>
      <trkpt lat="47.98845" lon="2.95135">
        <ele>170</ele>
        <time>2013-09-22T14:59:17Z</time>
      </trkpt>
      <trkpt lat="47.98829" lon="2.95114">
        <ele>170</ele>
        <time>2013-09-22T14:59:18Z</time>
      </trkpt>
      <trkpt lat="47.98807" lon="2.95093">
        <ele>173</ele>
        <time>2013-09-22T14:59:19Z</time>
      </trkpt>
      <trkpt lat="47.98792" lon="2.95076">
        <ele>170</ele>
        <time>2013-09-22T14:59:20Z</time>
      </trkpt>
      <trkpt lat="47.98778" lon="2.95058">
        <ele>169</ele>
        <time>2013-09-22T14:59:21Z</time>
      </trkpt>
      <trkpt lat="47.98754" lon="2.95023">
        <ele>165</ele>
        <time>2013-09-22T14:59:23Z</time>
      </trkpt>
      <trkpt lat="47.98738" lon="2.94981">
        <ele>169</ele>
        <time>2013-09-22T14:59:25Z</time>
      </trkpt>
      <trkpt lat="47.98727" lon="2.94957">
        <ele>165</ele>
        <time>2013-09-22T14:59:26Z</time>
      </trkpt>
      <trkpt lat="47.98706" lon="2.94919">
        <ele>163</ele>
        <time>2013-09-22T14:59:28Z</time>
      </trkpt>
      <trkpt lat="47.98678" lon="2.94885">
        <ele>163</ele>
        <time>2013-09-22T14:59:30Z</time>
      </trkpt>
      <trkpt lat="47.98662" lon="2.94869">
        <ele>163</ele>
        <time>2013-09-22T14:59:31Z</time>
      </trkpt>
      <trkpt lat="47.98646" lon="2.94853">
        <ele>163</ele>
        <time>2013-09-22T14:59:32Z</time>
      </trkpt>
      <trkpt lat="47.98614" lon="2.94827">
        <ele>164</ele>
        <time>2013-09-22T14:59:34Z</time>
      </trkpt>
      <trkpt lat="47.98586" lon="2.94797">
        <ele>163</ele>
        <time>2013-09-22T14:59:36Z</time>
      </trkpt>
      <trkpt lat="47.98573" lon="2.94776">
        <ele>164</ele>
        <time>2013-09-22T14:59:37Z</time>
      </trkpt>
      <trkpt lat="47.98561" lon="2.94754">
        <ele>164</ele>
        <time>2013-09-22T14:59:38Z</time>
      </trkpt>
      <trkpt lat="47.98555" lon="2.94728">
        <ele>163</ele>
        <time>2013-09-22T14:59:39Z</time>
      </trkpt>
      <trkpt lat="47.98548" lon="2.94702">
        <ele>162</ele>
        <time>2013-09-22T14:59:40Z</time>
      </trkpt>
      <trkpt lat="47.98538" lon="2.94674">
        <ele>163</ele>
        <time>2013-09-22T14:59:41Z</time>
      </trkpt>
      <trkpt lat="47.98529" lon="2.94645">
        <ele>163</ele>
        <time>2013-09-22T14:59:42Z</time>
      </trkpt>
      <trkpt lat="47.98519" lon="2.94617">
        <ele>164</ele>
        <time>2013-09-22T14:59:43Z</time>
      </trkpt>
      <trkpt lat="47.98511" lon="2.94593">
        <ele>164</ele>
        <time>2013-09-22T14:59:44Z</time>
      </trkpt>
      <trkpt lat="47.98498" lon="2.94568">
        <ele>165</ele>
        <time>2013-09-22T14:59:45Z</time>
      </trkpt>
      <trkpt lat="47.98484" lon="2.94543">
        <ele>165</ele>
        <time>2013-09-22T14:59:46Z</time>
      </trkpt>
      <trkpt lat="47.98471" lon="2.94518">
        <ele>165</ele>
        <time>2013-09-22T14:59:47Z</time>
      </trkpt>
      <trkpt lat="47.98456" lon="2.94491">
        <ele>165</ele>
        <time>2013-09-22T14:59:48Z</time>
      </trkpt>
      <trkpt lat="47.98443" lon="2.94465">
        <ele>165</ele>
        <time>2013-09-22T14:59:49Z</time>
      </trkpt>
      <trkpt lat="47.98428" lon="2.94439">
        <ele>166</ele>
        <time>2013-09-22T14:59:50Z</time>
      </trkpt>
      <trkpt lat="47.98414" lon="2.94413">
        <ele>166</ele>
        <time>2013-09-22T14:59:51Z</time>
      </trkpt>
      <trkpt lat="47.984" lon="2.94387">
        <ele>166</ele>
        <time>2013-09-22T14:59:52Z</time>
      </trkpt>
      <trkpt lat="47.98386" lon="2.94363">
        <ele>167</ele>
        <time>2013-09-22T14:59:53Z</time>
      </trkpt>
      <trkpt lat="47.98372" lon="2.94339">
        <ele>167</ele>
        <time>2013-09-22T14:59:54Z</time>
      </trkpt>
      <trkpt lat="47.98358" lon="2.94316">
        <ele>166</ele>
        <time>2013-09-22T14:59:55Z</time>
      </trkpt>
      <trkpt lat="47.98342" lon="2.94293">
        <ele>167</ele>
        <time>2013-09-22T14:59:56Z</time>
      </trkpt>
      <trkpt lat="47.98325" lon="2.9427">
        <ele>166</ele>
        <time>2013-09-22T14:59:57Z</time>
      </trkpt>
      <trkpt lat="47.98306" lon="2.94246">
        <ele>165</ele>
        <time>2013-09-22T14:59:58Z</time>
      </trkpt>
      <trkpt lat="47.98288" lon="2.94222">
        <ele>164</ele>
        <time>2013-09-22T14:59:59Z</time>
      </trkpt>
      <trkpt lat="47.9827" lon="2.94197">
        <ele>163</ele>
        <time>2013-09-22T15:00:00Z</time>
      </trkpt>
      <trkpt lat="47.98252" lon="2.94173">
        <ele>163</ele>
        <time>2013-09-22T15:00:01Z</time>
      </trkpt>
      <trkpt lat="47.98234" lon="2.94149">
        <ele>163</ele>
        <time>2013-09-22T15:00:02Z</time>
      </trkpt>
      <trkpt lat="47.98216" lon="2.94124">
        <ele>162</ele>
        <time>2013-09-22T15:00:03Z</time>
      </trkpt>
      <trkpt lat="47.98197" lon="2.94099">
        <ele>162</ele>
        <time>2013-09-22T15:00:04Z</time>
      </trkpt>
      <trkpt lat="47.98179" lon="2.94073">
        <ele>162</ele>
        <time>2013-09-22T15:00:05Z</time>
      </trkpt>
      <trkpt lat="47.9816" lon="2.94048">
        <ele>161</ele>
        <time>2013-09-22T15:00:06Z</time>
      </trkpt>
      <trkpt lat="47.98141" lon="2.94022">
        <ele>161</ele>
        <time>2013-09-22T15:00:07Z</time>
      </trkpt>
      <trkpt lat="47.98122" lon="2.93996">
        <ele>160</ele>
        <time>2013-09-22T15:00:08Z</time>
      </trkpt>
      <trkpt lat="47.98104" lon="2.93971">
        <ele>160</ele>
        <time>2013-09-22T15:00:09Z</time>
      </trkpt>
      <trkpt lat="47.98086" lon="2.93946">
        <ele>159</ele>
        <time>2013-09-22T15:00:10Z</time>
      </trkpt>
      <trkpt lat="47.98067" lon="2.93921">
        <ele>158</ele>
        <time>2013-09-22T15:00:11Z</time>
      </trkpt>
      <trkpt lat="47.9805" lon="2.93895">
        <ele>158</ele>
        <time>2013-09-22T15:00:12Z</time>
      </trkpt>
      <trkpt lat="47.98034" lon="2.93869">
        <ele>157</ele>
        <time>2013-09-22T15:00:13Z</time>
      </trkpt>
      <trkpt lat="47.98019" lon="2.9384">
        <ele>158</ele>
        <time>2013-09-22T15:00:14Z</time>
      </trkpt>
      <trkpt lat="47.98006" lon="2.93809">
        <ele>157</ele>
        <time>2013-09-22T15:00:15Z</time>
      </trkpt>
      <trkpt lat="47.97993" lon="2.93778">
        <ele>157</ele>
        <time>2013-09-22T15:00:16Z</time>
      </trkpt>
      <trkpt lat="47.9798" lon="2.93747">
        <ele>157</ele>
        <time>2013-09-22T15:00:17Z</time>
      </trkpt>
      <trkpt lat="47.97968" lon="2.93718">
        <ele>156</ele>
        <time>2013-09-22T15:00:18Z</time>
      </trkpt>
      <trkpt lat="47.97956" lon="2.9369">
        <ele>158</ele>
        <time>2013-09-22T15:00:19Z</time>
      </trkpt>
      <trkpt lat="47.97945" lon="2.93662">
        <ele>159</ele>
        <time>2013-09-22T15:00:20Z</time>
      </trkpt>
      <trkpt lat="47.97933" lon="2.93639">
        <ele>158</ele>
        <time>2013-09-22T15:00:21Z</time>
      </trkpt>
      <trkpt lat="47.97919" lon="2.93615">
        <ele>158</ele>
        <time>2013-09-22T15:00:22Z</time>
      </trkpt>
      <trkpt lat="47.97901" lon="2.93595">
        <ele>157</ele>
        <time>2013-09-22T15:00:23Z</time>
      </trkpt>
      <trkpt lat="47.97883" lon="2.93576">
        <ele>157</ele>
        <time>2013-09-22T15:00:24Z</time>
      </trkpt>
      <trkpt lat="47.97864" lon="2.93557">
        <ele>156</ele>
        <time>2013-09-22T15:00:25Z</time>
      </trkpt>
      <trkpt lat="47.97844" lon="2.93538">
        <ele>156</ele>
        <time>2013-09-22T15:00:26Z</time>
      </trkpt>
      <trkpt lat="47.97824" lon="2.93517">
        <ele>156</ele>
        <time>2013-09-22T15:00:27Z</time>
      </trkpt>
      <trkpt lat="47.97803" lon="2.93498">
        <ele>155</ele>
        <time>2013-09-22T15:00:28Z</time>
      </trkpt>
      <trkpt lat="47.97783" lon="2.93478">
        <ele>155</ele>
        <time>2013-09-22T15:00:29Z</time>
      </trkpt>
      <trkpt lat="47.97762" lon="2.93459">
        <ele>156</ele>
        <time>2013-09-22T15:00:30Z</time>
      </trkpt>
      <trkpt lat="47.97742" lon="2.93439">
        <ele>156</ele>
        <time>2013-09-22T15:00:31Z</time>
      </trkpt>
      <trkpt lat="47.97722" lon="2.93419">
        <ele>156</ele>
        <time>2013-09-22T15:00:32Z</time>
      </trkpt>
      <trkpt lat="47.97703" lon="2.93398">
        <ele>156</ele>
        <time>2013-09-22T15:00:33Z</time>
      </trkpt>
      <trkpt lat="47.97683" lon="2.93377">
        <ele>156</ele>
        <time>2013-09-22T15:00:34Z</time>
      </trkpt>
      <trkpt lat="47.97662" lon="2.93356">
        <ele>157</ele>
        <time>2013-09-22T15:00:35Z</time>
      </trkpt>
      <trkpt lat="47.97642" lon="2.93334">
        <ele>158</ele>
        <time>2013-09-22T15:00:36Z</time>
      </trkpt>
      <trkpt lat="47.97624" lon="2.93314">
        <ele>158</ele>
        <time>2013-09-22T15:00:37Z</time>
      </trkpt>
      <trkpt lat="47.97606" lon="2.93292">
        <ele>158</ele>
        <time>2013-09-22T15:00:38Z</time>
      </trkpt>
      <trkpt lat="47.9759" lon="2.93266">
        <ele>157</ele>
        <time>2013-09-22T15:00:39Z</time>
      </trkpt>
      <trkpt lat="47.97574" lon="2.93239">
        <ele>157</ele>
        <time>2013-09-22T15:00:40Z</time>
      </trkpt>
      <trkpt lat="47.97558" lon="2.93216">
        <ele>158</ele>
        <time>2013-09-22T15:00:41Z</time>
      </trkpt>
      <trkpt lat="47.97541" lon="2.93192">
        <ele>158</ele>
        <time>2013-09-22T15:00:42Z</time>
      </trkpt>
      <trkpt lat="47.97522" lon="2.93171">
        <ele>158</ele>
        <time>2013-09-22T15:00:43Z</time>
      </trkpt>
      <trkpt lat="47.97502" lon="2.93148">
        <ele>158</ele>
        <time>2013-09-22T15:00:44Z</time>
      </trkpt>
      <trkpt lat="47.97483" lon="2.93127">
        <ele>159</ele>
        <time>2013-09-22T15:00:45Z</time>
      </trkpt>
      <trkpt lat="47.97462" lon="2.93105">
        <ele>159</ele>
        <time>2013-09-22T15:00:46Z</time>
      </trkpt>
      <trkpt lat="47.97442" lon="2.93083">
        <ele>160</ele>
        <time>2013-09-22T15:00:47Z</time>
      </trkpt>
      <trkpt lat="47.97423" lon="2.93063">
        <ele>160</ele>
        <time>2013-09-22T15:00:48Z</time>
      </trkpt>
      <trkpt lat="47.97403" lon="2.93042">
        <ele>160</ele>
        <time>2013-09-22T15:00:49Z</time>
      </trkpt>
      <trkpt lat="47.97385" lon="2.93022">
        <ele>160</ele>
        <time>2013-09-22T15:00:50Z</time>
      </trkpt>
      <trkpt lat="47.97366" lon="2.93003">
        <ele>161</ele>
        <time>2013-09-22T15:00:51Z</time>
      </trkpt>
      <trkpt lat="47.97349" lon="2.92982">
        <ele>162</ele>
        <time>2013-09-22T15:00:52Z</time>
      </trkpt>
      <trkpt lat="47.97331" lon="2.92966">
        <ele>164</ele>
        <time>2013-09-22T15:00:53Z</time>
      </trkpt>
      <trkpt lat="47.97316" lon="2.92948">
        <ele>163</ele>
        <time>2013-09-22T15:00:54Z</time>
      </trkpt>
      <trkpt lat="47.97302" lon="2.92929">
        <ele>164</ele>
        <time>2013-09-22T15:00:55Z</time>
      </trkpt>
      <trkpt lat="47.9728" lon="2.92891">
        <ele>167</ele>
        <time>2013-09-22T15:00:57Z</time>
      </trkpt>
      <trkpt lat="47.97259" lon="2.92856">
        <ele>167</ele>
        <time>2013-09-22T15:00:59Z</time>
      </trkpt>
      <trkpt lat="47.97239" lon="2.92827">
        <ele>167</ele>
        <time>2013-09-22T15:01:01Z</time>
      </trkpt>
      <trkpt lat="47.97222" lon="2.92804">
        <ele>167</ele>
        <time>2013-09-22T15:01:03Z</time>
      </trkpt>
      <trkpt lat="47.97208" lon="2.92785">
        <ele>169</ele>
        <time>2013-09-22T15:01:05Z</time>
      </trkpt>
      <trkpt lat="47.97188" lon="2.92775">
        <ele>170</ele>
        <time>2013-09-22T15:01:08Z</time>
      </trkpt>
      <trkpt lat="47.97161" lon="2.92785">
        <ele>170</ele>
        <time>2013-09-22T15:01:11Z</time>
      </trkpt>
      <trkpt lat="47.97133" lon="2.92792">
        <ele>171</ele>
        <time>2013-09-22T15:01:13Z</time>
      </trkpt>
      <trkpt lat="47.97103" lon="2.92802">
        <ele>171</ele>
        <time>2013-09-22T15:01:15Z</time>
      </trkpt>
      <trkpt lat="47.97085" lon="2.92805">
        <ele>170</ele>
        <time>2013-09-22T15:01:16Z</time>
      </trkpt>
      <trkpt lat="47.97067" lon="2.92811">
        <ele>170</ele>
        <time>2013-09-22T15:01:17Z</time>
      </trkpt>
      <trkpt lat="47.97034" lon="2.92832">
        <ele>166</ele>
        <time>2013-09-22T15:01:19Z</time>
      </trkpt>
      <trkpt lat="47.97016" lon="2.92841">
        <ele>165</ele>
        <time>2013-09-22T15:01:20Z</time>
      </trkpt>
      <trkpt lat="47.96996" lon="2.92849">
        <ele>166</ele>
        <time>2013-09-22T15:01:21Z</time>
      </trkpt>
      <trkpt lat="47.96978" lon="2.9286">
        <ele>165</ele>
        <time>2013-09-22T15:01:22Z</time>
      </trkpt>
      <trkpt lat="47.96959" lon="2.9287">
        <ele>164</ele>
        <time>2013-09-22T15:01:23Z</time>
      </trkpt>
      <trkpt lat="47.9694" lon="2.92879">
        <ele>164</ele>
        <time>2013-09-22T15:01:24Z</time>
      </trkpt>
      <trkpt lat="47.96921" lon="2.9289">
        <ele>162</ele>
        <time>2013-09-22T15:01:25Z</time>
      </trkpt>
      <trkpt lat="47.96903" lon="2.92899">
        <ele>161</ele>
        <time>2013-09-22T15:01:26Z</time>
      </trkpt>
      <trkpt lat="47.96886" lon="2.92908">
        <ele>161</ele>
        <time>2013-09-22T15:01:27Z</time>
      </trkpt>
      <trkpt lat="47.96853" lon="2.92918">
        <ele>158</ele>
        <time>2013-09-22T15:01:29Z</time>
      </trkpt>
      <trkpt lat="47.96817" lon="2.92912">
        <ele>156</ele>
        <time>2013-09-22T15:01:31Z</time>
      </trkpt>
      <trkpt lat="47.96798" lon="2.92903">
        <ele>155</ele>
        <time>2013-09-22T15:01:32Z</time>
      </trkpt>
      <trkpt lat="47.9678" lon="2.92891">
        <ele>155</ele>
        <time>2013-09-22T15:01:33Z</time>
      </trkpt>
      <trkpt lat="47.96761" lon="2.92879">
        <ele>155</ele>
        <time>2013-09-22T15:01:34Z</time>
      </trkpt>
      <trkpt lat="47.96741" lon="2.92868">
        <ele>154</ele>
        <time>2013-09-22T15:01:35Z</time>
      </trkpt>
      <trkpt lat="47.96721" lon="2.92857">
        <ele>155</ele>
        <time>2013-09-22T15:01:36Z</time>
      </trkpt>
      <trkpt lat="47.96702" lon="2.92844">
        <ele>156</ele>
        <time>2013-09-22T15:01:37Z</time>
      </trkpt>
      <trkpt lat="47.96682" lon="2.92832">
        <ele>157</ele>
        <time>2013-09-22T15:01:38Z</time>
      </trkpt>
      <trkpt lat="47.96662" lon="2.92818">
        <ele>158</ele>
        <time>2013-09-22T15:01:39Z</time>
      </trkpt>
      <trkpt lat="47.96645" lon="2.92801">
        <ele>159</ele>
        <time>2013-09-22T15:01:40Z</time>
      </trkpt>
      <trkpt lat="47.96629" lon="2.92782">
        <ele>160</ele>
        <time>2013-09-22T15:01:41Z</time>
      </trkpt>
      <trkpt lat="47.96612" lon="2.92765">
        <ele>161</ele>
        <time>2013-09-22T15:01:42Z</time>
      </trkpt>
      <trkpt lat="47.96594" lon="2.9275">
        <ele>163</ele>
        <time>2013-09-22T15:01:43Z</time>
      </trkpt>
      <trkpt lat="47.96577" lon="2.92737">
        <ele>165</ele>
        <time>2013-09-22T15:01:44Z</time>
      </trkpt>
      <trkpt lat="47.96558" lon="2.92725">
        <ele>166</ele>
        <time>2013-09-22T15:01:45Z</time>
      </trkpt>
      <trkpt lat="47.96539" lon="2.92715">
        <ele>166</ele>
        <time>2013-09-22T15:01:46Z</time>
      </trkpt>
      <trkpt lat="47.96518" lon="2.92703">
        <ele>166</ele>
        <time>2013-09-22T15:01:47Z</time>
      </trkpt>
      <trkpt lat="47.96498" lon="2.92691">
        <ele>167</ele>
        <time>2013-09-22T15:01:48Z</time>
      </trkpt>
      <trkpt lat="47.96478" lon="2.92679">
        <ele>167</ele>
        <time>2013-09-22T15:01:49Z</time>
      </trkpt>
      <trkpt lat="47.96459" lon="2.92667">
        <ele>168</ele>
        <time>2013-09-22T15:01:50Z</time>
      </trkpt>
      <trkpt lat="47.96439" lon="2.92655">
        <ele>169</ele>
        <time>2013-09-22T15:01:51Z</time>
      </trkpt>
      <trkpt lat="47.96419" lon="2.92647">
        <ele>169</ele>
        <time>2013-09-22T15:01:52Z</time>
      </trkpt>
      <trkpt lat="47.96397" lon="2.9264">
        <ele>169</ele>
        <time>2013-09-22T15:01:53Z</time>
      </trkpt>
      <trkpt lat="47.96376" lon="2.92634">
        <ele>169</ele>
        <time>2013-09-22T15:01:54Z</time>
      </trkpt>
      <trkpt lat="47.96354" lon="2.92628">
        <ele>169</ele>
        <time>2013-09-22T15:01:55Z</time>
      </trkpt>
      <trkpt lat="47.96332" lon="2.92623">
        <ele>169</ele>
        <time>2013-09-22T15:01:56Z</time>
      </trkpt>
      <trkpt lat="47.96311" lon="2.92619">
        <ele>168</ele>
        <time>2013-09-22T15:01:57Z</time>
      </trkpt>
      <trkpt lat="47.9629" lon="2.92617">
        <ele>167</ele>
        <time>2013-09-22T15:01:58Z</time>
      </trkpt>
      <trkpt lat="47.96271" lon="2.92613">
        <ele>167</ele>
        <time>2013-09-22T15:01:59Z</time>
      </trkpt>
      <trkpt lat="47.9624" lon="2.92612">
        <ele>168</ele>
        <time>2013-09-22T15:02:01Z</time>
      </trkpt>
      <trkpt lat="47.96213" lon="2.92627">
        <ele>169</ele>
        <time>2013-09-22T15:02:03Z</time>
      </trkpt>
      <trkpt lat="47.96185" lon="2.92658">
        <ele>169</ele>
        <time>2013-09-22T15:02:05Z</time>
      </trkpt>
      <trkpt lat="47.96159" lon="2.92698">
        <ele>167</ele>
        <time>2013-09-22T15:02:07Z</time>
      </trkpt>
      <trkpt lat="47.96147" lon="2.92717">
        <ele>167</ele>
        <time>2013-09-22T15:02:08Z</time>
      </trkpt>
      <trkpt lat="47.96127" lon="2.92754">
        <ele>166</ele>
        <time>2013-09-22T15:02:10Z</time>
      </trkpt>
      <trkpt lat="47.96113" lon="2.92795">
        <ele>165</ele>
        <time>2013-09-22T15:02:12Z</time>
      </trkpt>
      <trkpt lat="47.96104" lon="2.92841">
        <ele>165</ele>
        <time>2013-09-22T15:02:14Z</time>
      </trkpt>
      <trkpt lat="47.96093" lon="2.92888">
        <ele>165</ele>
        <time>2013-09-22T15:02:16Z</time>
      </trkpt>
      <trkpt lat="47.96084" lon="2.9293">
        <ele>164</ele>
        <time>2013-09-22T15:02:18Z</time>
      </trkpt>
      <trkpt lat="47.96079" lon="2.92973">
        <ele>164</ele>
        <time>2013-09-22T15:02:20Z</time>
      </trkpt>
      <trkpt lat="47.96076" lon="2.93012">
        <ele>164</ele>
        <time>2013-09-22T15:02:22Z</time>
      </trkpt>
      <trkpt lat="47.96068" lon="2.93039">
        <ele>163</ele>
        <time>2013-09-22T15:02:24Z</time>
      </trkpt>
      <trkpt lat="47.96054" lon="2.93061">
        <ele>164</ele>
        <time>2013-09-22T15:02:26Z</time>
      </trkpt>
      <trkpt lat="47.96026" lon="2.93077">
        <ele>162</ele>
        <time>2013-09-22T15:02:28Z</time>
      </trkpt>
      <trkpt lat="47.95994" lon="2.93096">
        <ele>162</ele>
        <time>2013-09-22T15:02:30Z</time>
      </trkpt>
      <trkpt lat="47.95976" lon="2.93105">
        <ele>162</ele>
        <time>2013-09-22T15:02:31Z</time>
      </trkpt>
      <trkpt lat="47.95959" lon="2.93117">
        <ele>161</ele>
        <time>2013-09-22T15:02:32Z</time>
      </trkpt>
      <trkpt lat="47.95941" lon="2.93126">
        <ele>160</ele>
        <time>2013-09-22T15:02:33Z</time>
      </trkpt>
      <trkpt lat="47.95922" lon="2.93136">
        <ele>159</ele>
        <time>2013-09-22T15:02:34Z</time>
      </trkpt>
      <trkpt lat="47.95903" lon="2.93146">
        <ele>159</ele>
        <time>2013-09-22T15:02:35Z</time>
      </trkpt>
      <trkpt lat="47.95884" lon="2.93157">
        <ele>159</ele>
        <time>2013-09-22T15:02:36Z</time>
      </trkpt>
      <trkpt lat="47.95866" lon="2.93167">
        <ele>160</ele>
        <time>2013-09-22T15:02:37Z</time>
      </trkpt>
      <trkpt lat="47.95829" lon="2.93186">
        <ele>160</ele>
        <time>2013-09-22T15:02:39Z</time>
      </trkpt>
      <trkpt lat="47.9581" lon="2.93197">
        <ele>160</ele>
        <time>2013-09-22T15:02:40Z</time>
      </trkpt>
      <trkpt lat="47.95774" lon="2.93219">
        <ele>160</ele>
        <time>2013-09-22T15:02:42Z</time>
      </trkpt>
      <trkpt lat="47.95757" lon="2.93231">
        <ele>163</ele>
        <time>2013-09-22T15:02:43Z</time>
      </trkpt>
      <trkpt lat="47.9574" lon="2.93244">
        <ele>162</ele>
        <time>2013-09-22T15:02:44Z</time>
      </trkpt>
      <trkpt lat="47.95722" lon="2.93257">
        <ele>162</ele>
        <time>2013-09-22T15:02:45Z</time>
      </trkpt>
      <trkpt lat="47.95705" lon="2.93272">
        <ele>161</ele>
        <time>2013-09-22T15:02:46Z</time>
      </trkpt>
      <trkpt lat="47.95687" lon="2.93288">
        <ele>162</ele>
        <time>2013-09-22T15:02:47Z</time>
      </trkpt>
      <trkpt lat="47.95669" lon="2.93305">
        <ele>162</ele>
        <time>2013-09-22T15:02:48Z</time>
      </trkpt>
      <trkpt lat="47.9565" lon="2.93323">
        <ele>162</ele>
        <time>2013-09-22T15:02:49Z</time>
      </trkpt>
      <trkpt lat="47.95632" lon="2.9334">
        <ele>161</ele>
        <time>2013-09-22T15:02:50Z</time>
      </trkpt>
      <trkpt lat="47.95613" lon="2.93356">
        <ele>160</ele>
        <time>2013-09-22T15:02:51Z</time>
      </trkpt>
      <trkpt lat="47.95594" lon="2.93375">
        <ele>159</ele>
        <time>2013-09-22T15:02:52Z</time>
      </trkpt>
      <trkpt lat="47.95575" lon="2.93393">
        <ele>160</ele>
        <time>2013-09-22T15:02:53Z</time>
      </trkpt>
      <trkpt lat="47.95557" lon="2.9341">
        <ele>160</ele>
        <time>2013-09-22T15:02:54Z</time>
      </trkpt>
      <trkpt lat="47.95538" lon="2.93427">
        <ele>160</ele>
        <time>2013-09-22T15:02:55Z</time>
      </trkpt>
      <trkpt lat="47.95519" lon="2.93445">
        <ele>161</ele>
        <time>2013-09-22T15:02:56Z</time>
      </trkpt>
      <trkpt lat="47.955" lon="2.93463">
        <ele>161</ele>
        <time>2013-09-22T15:02:57Z</time>
      </trkpt>
      <trkpt lat="47.95484" lon="2.93479">
        <ele>161</ele>
        <time>2013-09-22T15:02:58Z</time>
      </trkpt>
      <trkpt lat="47.95466" lon="2.93495">
        <ele>162</ele>
        <time>2013-09-22T15:02:59Z</time>
      </trkpt>
      <trkpt lat="47.95449" lon="2.9351">
        <ele>162</ele>
        <time>2013-09-22T15:03:00Z</time>
      </trkpt>
      <trkpt lat="47.95433" lon="2.93524">
        <ele>162</ele>
        <time>2013-09-22T15:03:01Z</time>
      </trkpt>
      <trkpt lat="47.95414" lon="2.93534">
        <ele>163</ele>
        <time>2013-09-22T15:03:02Z</time>
      </trkpt>
      <trkpt lat="47.95396" lon="2.93543">
        <ele>162</ele>
        <time>2013-09-22T15:03:03Z</time>
      </trkpt>
      <trkpt lat="47.95377" lon="2.9355">
        <ele>162</ele>
        <time>2013-09-22T15:03:04Z</time>
      </trkpt>
      <trkpt lat="47.95357" lon="2.93557">
        <ele>162</ele>
        <time>2013-09-22T15:03:05Z</time>
      </trkpt>
      <trkpt lat="47.95337" lon="2.93559">
        <ele>161</ele>
        <time>2013-09-22T15:03:06Z</time>
      </trkpt>
      <trkpt lat="47.95316" lon="2.93562">
        <ele>161</ele>
        <time>2013-09-22T15:03:07Z</time>
      </trkpt>
      <trkpt lat="47.95295" lon="2.93564">
        <ele>161</ele>
        <time>2013-09-22T15:03:08Z</time>
      </trkpt>
      <trkpt lat="47.95273" lon="2.93566">
        <ele>161</ele>
        <time>2013-09-22T15:03:09Z</time>
      </trkpt>
      <trkpt lat="47.95251" lon="2.93568">
        <ele>162</ele>
        <time>2013-09-22T15:03:10Z</time>
      </trkpt>
      <trkpt lat="47.95229" lon="2.93571">
        <ele>162</ele>
        <time>2013-09-22T15:03:11Z</time>
      </trkpt>
      <trkpt lat="47.95207" lon="2.93573">
        <ele>163</ele>
        <time>2013-09-22T15:03:12Z</time>
      </trkpt>
      <trkpt lat="47.95185" lon="2.93577">
        <ele>164</ele>
        <time>2013-09-22T15:03:13Z</time>
      </trkpt>
      <trkpt lat="47.95165" lon="2.93578">
        <ele>164</ele>
        <time>2013-09-22T15:03:14Z</time>
      </trkpt>
      <trkpt lat="47.95145" lon="2.93577">
        <ele>164</ele>
        <time>2013-09-22T15:03:15Z</time>
      </trkpt>
      <trkpt lat="47.95124" lon="2.93572">
        <ele>164</ele>
        <time>2013-09-22T15:03:16Z</time>
      </trkpt>
      <trkpt lat="47.95103" lon="2.93565">
        <ele>165</ele>
        <time>2013-09-22T15:03:17Z</time>
      </trkpt>
      <trkpt lat="47.95083" lon="2.93556">
        <ele>165</ele>
        <time>2013-09-22T15:03:18Z</time>
      </trkpt>
      <trkpt lat="47.95061" lon="2.93546">
        <ele>164</ele>
        <time>2013-09-22T15:03:19Z</time>
      </trkpt>
      <trkpt lat="47.9504" lon="2.93536">
        <ele>164</ele>
        <time>2013-09-22T15:03:20Z</time>
      </trkpt>
      <trkpt lat="47.95017" lon="2.93528">
        <ele>164</ele>
        <time>2013-09-22T15:03:21Z</time>
      </trkpt>
      <trkpt lat="47.94994" lon="2.93523">
        <ele>163</ele>
        <time>2013-09-22T15:03:22Z</time>
      </trkpt>
      <trkpt lat="47.94969" lon="2.93519">
        <ele>165</ele>
        <time>2013-09-22T15:03:23Z</time>
      </trkpt>
      <trkpt lat="47.94945" lon="2.93516">
        <ele>165</ele>
        <time>2013-09-22T15:03:24Z</time>
      </trkpt>
      <trkpt lat="47.94922" lon="2.9351">
        <ele>166</ele>
        <time>2013-09-22T15:03:25Z</time>
      </trkpt>
      <trkpt lat="47.94897" lon="2.93507">
        <ele>166</ele>
        <time>2013-09-22T15:03:26Z</time>
      </trkpt>
      <trkpt lat="47.94874" lon="2.93502">
        <ele>165</ele>
        <time>2013-09-22T15:03:27Z</time>
      </trkpt>
      <trkpt lat="47.94851" lon="2.93498">
        <ele>166</ele>
        <time>2013-09-22T15:03:28Z</time>
      </trkpt>
      <trkpt lat="47.94829" lon="2.93494">
        <ele>167</ele>
        <time>2013-09-22T15:03:29Z</time>
      </trkpt>
      <trkpt lat="47.94807" lon="2.9349">
        <ele>166</ele>
        <time>2013-09-22T15:03:30Z</time>
      </trkpt>
      <trkpt lat="47.94784" lon="2.93486">
        <ele>166</ele>
        <time>2013-09-22T15:03:31Z</time>
      </trkpt>
      <trkpt lat="47.94762" lon="2.93482">
        <ele>166</ele>
        <time>2013-09-22T15:03:32Z</time>
      </trkpt>
      <trkpt lat="47.94739" lon="2.9348">
        <ele>166</ele>
        <time>2013-09-22T15:03:33Z</time>
      </trkpt>
      <trkpt lat="47.94716" lon="2.93477">
        <ele>167</ele>
        <time>2013-09-22T15:03:34Z</time>
      </trkpt>
      <trkpt lat="47.94694" lon="2.93475">
        <ele>167</ele>
        <time>2013-09-22T15:03:35Z</time>
      </trkpt>
      <trkpt lat="47.94671" lon="2.93472">
        <ele>167</ele>
        <time>2013-09-22T15:03:36Z</time>
      </trkpt>
      <trkpt lat="47.94647" lon="2.93469">
        <ele>169</ele>
        <time>2013-09-22T15:03:37Z</time>
      </trkpt>
      <trkpt lat="47.94624" lon="2.93468">
        <ele>168</ele>
        <time>2013-09-22T15:03:38Z</time>
      </trkpt>
      <trkpt lat="47.94601" lon="2.93467">
        <ele>169</ele>
        <time>2013-09-22T15:03:39Z</time>
      </trkpt>
      <trkpt lat="47.94579" lon="2.93464">
        <ele>170</ele>
        <time>2013-09-22T15:03:40Z</time>
      </trkpt>
      <trkpt lat="47.94558" lon="2.93463">
        <ele>170</ele>
        <time>2013-09-22T15:03:41Z</time>
      </trkpt>
      <trkpt lat="47.94537" lon="2.93462">
        <ele>172</ele>
        <time>2013-09-22T15:03:42Z</time>
      </trkpt>
      <trkpt lat="47.94518" lon="2.9346">
        <ele>171</ele>
        <time>2013-09-22T15:03:43Z</time>
      </trkpt>
      <trkpt lat="47.94498" lon="2.93456">
        <ele>171</ele>
        <time>2013-09-22T15:03:44Z</time>
      </trkpt>
      <trkpt lat="47.94478" lon="2.93448">
        <ele>172</ele>
        <time>2013-09-22T15:03:45Z</time>
      </trkpt>
      <trkpt lat="47.94459" lon="2.93439">
        <ele>172</ele>
        <time>2013-09-22T15:03:46Z</time>
      </trkpt>
      <trkpt lat="47.9444" lon="2.93427">
        <ele>173</ele>
        <time>2013-09-22T15:03:47Z</time>
      </trkpt>
      <trkpt lat="47.94421" lon="2.93415">
        <ele>173</ele>
        <time>2013-09-22T15:03:48Z</time>
      </trkpt>
      <trkpt lat="47.944" lon="2.93405">
        <ele>172</ele>
        <time>2013-09-22T15:03:49Z</time>
      </trkpt>
      <trkpt lat="47.94379" lon="2.93391">
        <ele>172</ele>
        <time>2013-09-22T15:03:50Z</time>
      </trkpt>
      <trkpt lat="47.94357" lon="2.93378">
        <ele>173</ele>
        <time>2013-09-22T15:03:51Z</time>
      </trkpt>
      <trkpt lat="47.94335" lon="2.93365">
        <ele>173</ele>
        <time>2013-09-22T15:03:52Z</time>
      </trkpt>
      <trkpt lat="47.94316" lon="2.93352">
        <ele>172</ele>
        <time>2013-09-22T15:03:53Z</time>
      </trkpt>
      <trkpt lat="47.94296" lon="2.93339">
        <ele>172</ele>
        <time>2013-09-22T15:03:54Z</time>
      </trkpt>
      <trkpt lat="47.94275" lon="2.93328">
        <ele>173</ele>
        <time>2013-09-22T15:03:55Z</time>
      </trkpt>
      <trkpt lat="47.94255" lon="2.93319">
        <ele>173</ele>
        <time>2013-09-22T15:03:56Z</time>
      </trkpt>
      <trkpt lat="47.94234" lon="2.9331">
        <ele>173</ele>
        <time>2013-09-22T15:03:57Z</time>
      </trkpt>
      <trkpt lat="47.94213" lon="2.93305">
        <ele>172</ele>
        <time>2013-09-22T15:03:58Z</time>
      </trkpt>
      <trkpt lat="47.94192" lon="2.93301">
        <ele>172</ele>
        <time>2013-09-22T15:03:59Z</time>
      </trkpt>
      <trkpt lat="47.94171" lon="2.93297">
        <ele>172</ele>
        <time>2013-09-22T15:04:00Z</time>
      </trkpt>
      <trkpt lat="47.94149" lon="2.93293">
        <ele>172</ele>
        <time>2013-09-22T15:04:01Z</time>
      </trkpt>
      <trkpt lat="47.94128" lon="2.93289">
        <ele>172</ele>
        <time>2013-09-22T15:04:02Z</time>
      </trkpt>
      <trkpt lat="47.94107" lon="2.93284">
        <ele>171</ele>
        <time>2013-09-22T15:04:03Z</time>
      </trkpt>
      <trkpt lat="47.94085" lon="2.9328">
        <ele>170</ele>
        <time>2013-09-22T15:04:04Z</time>
      </trkpt>
      <trkpt lat="47.94065" lon="2.93275">
        <ele>171</ele>
        <time>2013-09-22T15:04:05Z</time>
      </trkpt>
      <trkpt lat="47.94045" lon="2.93271">
        <ele>171</ele>
        <time>2013-09-22T15:04:06Z</time>
      </trkpt>
      <trkpt lat="47.94024" lon="2.93267">
        <ele>171</ele>
        <time>2013-09-22T15:04:07Z</time>
      </trkpt>
      <trkpt lat="47.94004" lon="2.93264">
        <ele>170</ele>
        <time>2013-09-22T15:04:08Z</time>
      </trkpt>
      <trkpt lat="47.93984" lon="2.93261">
        <ele>170</ele>
        <time>2013-09-22T15:04:09Z</time>
      </trkpt>
      <trkpt lat="47.93965" lon="2.93257">
        <ele>170</ele>
        <time>2013-09-22T15:04:10Z</time>
      </trkpt>
      <trkpt lat="47.93947" lon="2.93255">
        <ele>170</ele>
        <time>2013-09-22T15:04:11Z</time>
      </trkpt>
      <trkpt lat="47.93915" lon="2.93239">
        <ele>169</ele>
        <time>2013-09-22T15:04:13Z</time>
      </trkpt>
      <trkpt lat="47.93895" lon="2.93234">
        <ele>172</ele>
        <time>2013-09-22T15:04:14Z</time>
      </trkpt>
      <trkpt lat="47.93877" lon="2.93231">
        <ele>172</ele>
        <time>2013-09-22T15:04:15Z</time>
      </trkpt>
      <trkpt lat="47.93844" lon="2.93231">
        <ele>169</ele>
        <time>2013-09-22T15:04:17Z</time>
      </trkpt>
      <trkpt lat="47.93813" lon="2.93232">
        <ele>169</ele>
        <time>2013-09-22T15:04:19Z</time>
      </trkpt>
      <trkpt lat="47.9379" lon="2.93231">
        <ele>168</ele>
        <time>2013-09-22T15:04:21Z</time>
      </trkpt>
      <trkpt lat="47.93771" lon="2.93223">
        <ele>167</ele>
        <time>2013-09-22T15:04:29Z</time>
      </trkpt>
      <trkpt lat="47.93757" lon="2.93205">
        <ele>167</ele>
        <time>2013-09-22T15:04:31Z</time>
      </trkpt>
      <trkpt lat="47.93736" lon="2.93179">
        <ele>166</ele>
        <time>2013-09-22T15:04:33Z</time>
      </trkpt>
      <trkpt lat="47.93713" lon="2.93148">
        <ele>163</ele>
        <time>2013-09-22T15:04:35Z</time>
      </trkpt>
      <trkpt lat="47.93686" lon="2.93115">
        <ele>160</ele>
        <time>2013-09-22T15:04:37Z</time>
      </trkpt>
      <trkpt lat="47.93671" lon="2.931">
        <ele>158</ele>
        <time>2013-09-22T15:04:38Z</time>
      </trkpt>
      <trkpt lat="47.9364" lon="2.93074">
        <ele>157</ele>
        <time>2013-09-22T15:04:40Z</time>
      </trkpt>
      <trkpt lat="47.93608" lon="2.93054">
        <ele>153</ele>
        <time>2013-09-22T15:04:42Z</time>
      </trkpt>
      <trkpt lat="47.93592" lon="2.93042">
        <ele>152</ele>
        <time>2013-09-22T15:04:43Z</time>
      </trkpt>
      <trkpt lat="47.93561" lon="2.93021">
        <ele>152</ele>
        <time>2013-09-22T15:04:45Z</time>
      </trkpt>
      <trkpt lat="47.93536" lon="2.93">
        <ele>152</ele>
        <time>2013-09-22T15:04:47Z</time>
      </trkpt>
      <trkpt lat="47.93513" lon="2.92976">
        <ele>152</ele>
        <time>2013-09-22T15:04:49Z</time>
      </trkpt>
      <trkpt lat="47.93498" lon="2.92943">
        <ele>149</ele>
        <time>2013-09-22T15:04:51Z</time>
      </trkpt>
      <trkpt lat="47.93486" lon="2.92903">
        <ele>147</ele>
        <time>2013-09-22T15:04:53Z</time>
      </trkpt>
      <trkpt lat="47.93483" lon="2.92861">
        <ele>141</ele>
        <time>2013-09-22T15:04:55Z</time>
      </trkpt>
      <trkpt lat="47.93475" lon="2.92815">
        <ele>138</ele>
        <time>2013-09-22T15:04:57Z</time>
      </trkpt>
      <trkpt lat="47.93465" lon="2.92769">
        <ele>135</ele>
        <time>2013-09-22T15:04:59Z</time>
      </trkpt>
      <trkpt lat="47.93459" lon="2.92726">
        <ele>133</ele>
        <time>2013-09-22T15:05:01Z</time>
      </trkpt>
      <trkpt lat="47.93454" lon="2.92697">
        <ele>131</ele>
        <time>2013-09-22T15:05:03Z</time>
      </trkpt>
      <trkpt lat="47.93436" lon="2.92672">
        <ele>132</ele>
        <time>2013-09-22T15:05:06Z</time>
      </trkpt>
      <trkpt lat="47.93417" lon="2.92674">
        <ele>130</ele>
        <time>2013-09-22T15:05:08Z</time>
      </trkpt>
      <trkpt lat="47.93396" lon="2.92677">
        <ele>129</ele>
        <time>2013-09-22T15:05:10Z</time>
      </trkpt>
      <trkpt lat="47.93375" lon="2.9268">
        <ele>126</ele>
        <time>2013-09-22T15:05:12Z</time>
      </trkpt>
      <trkpt lat="47.93356" lon="2.92689">
        <ele>124</ele>
        <time>2013-09-22T15:05:14Z</time>
      </trkpt>
      <trkpt lat="47.93334" lon="2.92713">
        <ele>123</ele>
        <time>2013-09-22T15:05:17Z</time>
      </trkpt>
      <trkpt lat="47.93317" lon="2.92736">
        <ele>121</ele>
        <time>2013-09-22T15:05:20Z</time>
      </trkpt>
      <trkpt lat="47.93291" lon="2.92736">
        <ele>109</ele>
        <time>2013-09-22T15:05:24Z</time>
      </trkpt>
      <trkpt lat="47.93269" lon="2.92734">
        <ele>108</ele>
        <time>2013-09-22T15:05:28Z</time>
      </trkpt>
      <trkpt lat="47.93248" lon="2.92748">
        <ele>109</ele>
        <time>2013-09-22T15:05:34Z</time>
      </trkpt>
      <trkpt lat="47.93228" lon="2.92758">
        <ele>109</ele>
        <time>2013-09-22T15:05:36Z</time>
      </trkpt>
      <trkpt lat="47.93204" lon="2.92765">
        <ele>110</ele>
        <time>2013-09-22T15:05:38Z</time>
      </trkpt>
      <trkpt lat="47.93181" lon="2.92771">
        <ele>103</ele>
        <time>2013-09-22T15:05:41Z</time>
      </trkpt>
      <trkpt lat="47.93162" lon="2.92774">
        <ele>105</ele>
        <time>2013-09-22T15:05:43Z</time>
      </trkpt>
      <trkpt lat="47.93135" lon="2.92777">
        <ele>101</ele>
        <time>2013-09-22T15:05:46Z</time>
      </trkpt>
      <trkpt lat="47.93114" lon="2.92777">
        <ele>102</ele>
        <time>2013-09-22T15:05:49Z</time>
      </trkpt>
      <trkpt lat="47.93088" lon="2.9278">
        <ele>105</ele>
        <time>2013-09-22T15:05:52Z</time>
      </trkpt>
      <trkpt lat="47.93067" lon="2.92783">
        <ele>106</ele>
        <time>2013-09-22T15:05:54Z</time>
      </trkpt>
      <trkpt lat="47.93042" lon="2.92787">
        <ele>105</ele>
        <time>2013-09-22T15:05:56Z</time>
      </trkpt>
      <trkpt lat="47.93016" lon="2.92793">
        <ele>107</ele>
        <time>2013-09-22T15:05:58Z</time>
      </trkpt>
      <trkpt lat="47.92993" lon="2.92798">
        <ele>108</ele>
        <time>2013-09-22T15:06:00Z</time>
      </trkpt>
      <trkpt lat="47.92968" lon="2.9282">
        <ele>108</ele>
        <time>2013-09-22T15:06:02Z</time>
      </trkpt>
      <trkpt lat="47.92947" lon="2.92834">
        <ele>106</ele>
        <time>2013-09-22T15:06:04Z</time>
      </trkpt>
      <trkpt lat="47.92925" lon="2.92834">
        <ele>104</ele>
        <time>2013-09-22T15:06:06Z</time>
      </trkpt>
      <trkpt lat="47.92907" lon="2.92825">
        <ele>105</ele>
        <time>2013-09-22T15:06:07Z</time>
      </trkpt>
      <trkpt lat="47.9288" lon="2.92825">
        <ele>104</ele>
        <time>2013-09-22T15:06:09Z</time>
      </trkpt>
      <trkpt lat="47.92851" lon="2.92828">
        <ele>107</ele>
        <time>2013-09-22T15:06:11Z</time>
      </trkpt>
      <trkpt lat="47.92829" lon="2.9282">
        <ele>106</ele>
        <time>2013-09-22T15:06:13Z</time>
      </trkpt>
      <trkpt lat="47.92812" lon="2.92816">
        <ele>107</ele>
        <time>2013-09-22T15:06:15Z</time>
      </trkpt>
      <trkpt lat="47.92795" lon="2.92806">
        <ele>107</ele>
        <time>2013-09-22T15:06:17Z</time>
      </trkpt>
      <trkpt lat="47.92775" lon="2.92813">
        <ele>110</ele>
        <time>2013-09-22T15:06:19Z</time>
      </trkpt>
      <trkpt lat="47.92757" lon="2.92837">
        <ele>112</ele>
        <time>2013-09-22T15:06:21Z</time>
      </trkpt>
      <trkpt lat="47.92737" lon="2.92852">
        <ele>113</ele>
        <time>2013-09-22T15:06:23Z</time>
      </trkpt>
      <trkpt lat="47.92715" lon="2.92866">
        <ele>111</ele>
        <time>2013-09-22T15:06:25Z</time>
      </trkpt>
      <trkpt lat="47.92686" lon="2.92882">
        <ele>111</ele>
        <time>2013-09-22T15:06:27Z</time>
      </trkpt>
      <trkpt lat="47.92657" lon="2.92897">
        <ele>110</ele>
        <time>2013-09-22T15:06:29Z</time>
      </trkpt>
      <trkpt lat="47.92627" lon="2.92913">
        <ele>111</ele>
        <time>2013-09-22T15:06:31Z</time>
      </trkpt>
      <trkpt lat="47.92597" lon="2.92928">
        <ele>109</ele>
        <time>2013-09-22T15:06:33Z</time>
      </trkpt>
      <trkpt lat="47.92571" lon="2.92942">
        <ele>109</ele>
        <time>2013-09-22T15:06:35Z</time>
      </trkpt>
      <trkpt lat="47.92548" lon="2.92955">
        <ele>112</ele>
        <time>2013-09-22T15:06:37Z</time>
      </trkpt>
      <trkpt lat="47.92528" lon="2.92965">
        <ele>114</ele>
        <time>2013-09-22T15:06:39Z</time>
      </trkpt>
      <trkpt lat="47.92523" lon="2.93001">
        <ele>118</ele>
        <time>2013-09-22T15:06:43Z</time>
      </trkpt>
      <trkpt lat="47.92527" lon="2.93033">
        <ele>118</ele>
        <time>2013-09-22T15:06:45Z</time>
      </trkpt>
      <trkpt lat="47.92534" lon="2.93075">
        <ele>117</ele>
        <time>2013-09-22T15:06:47Z</time>
      </trkpt>
      <trkpt lat="47.92543" lon="2.93122">
        <ele>116</ele>
        <time>2013-09-22T15:06:49Z</time>
      </trkpt>
      <trkpt lat="47.92546" lon="2.93173">
        <ele>115</ele>
        <time>2013-09-22T15:06:51Z</time>
      </trkpt>
      <trkpt lat="47.92553" lon="2.93221">
        <ele>118</ele>
        <time>2013-09-22T15:06:53Z</time>
      </trkpt>
      <trkpt lat="47.92561" lon="2.93272">
        <ele>122</ele>
        <time>2013-09-22T15:06:55Z</time>
      </trkpt>
      <trkpt lat="47.92564" lon="2.93323">
        <ele>122</ele>
        <time>2013-09-22T15:06:57Z</time>
      </trkpt>
      <trkpt lat="47.92555" lon="2.93375">
        <ele>123</ele>
        <time>2013-09-22T15:06:59Z</time>
      </trkpt>
      <trkpt lat="47.92547" lon="2.93401">
        <ele>122</ele>
        <time>2013-09-22T15:07:00Z</time>
      </trkpt>
      <trkpt lat="47.92534" lon="2.93425">
        <ele>122</ele>
        <time>2013-09-22T15:07:01Z</time>
      </trkpt>
      <trkpt lat="47.92522" lon="2.93448">
        <ele>123</ele>
        <time>2013-09-22T15:07:02Z</time>
      </trkpt>
      <trkpt lat="47.92509" lon="2.93471">
        <ele>123</ele>
        <time>2013-09-22T15:07:03Z</time>
      </trkpt>
      <trkpt lat="47.92495" lon="2.9349">
        <ele>122</ele>
        <time>2013-09-22T15:07:04Z</time>
      </trkpt>
      <trkpt lat="47.92481" lon="2.93515">
        <ele>122</ele>
        <time>2013-09-22T15:07:05Z</time>
      </trkpt>
      <trkpt lat="47.9247" lon="2.93538">
        <ele>123</ele>
        <time>2013-09-22T15:07:06Z</time>
      </trkpt>
      <trkpt lat="47.92457" lon="2.93564">
        <ele>122</ele>
        <time>2013-09-22T15:07:07Z</time>
      </trkpt>
      <trkpt lat="47.92445" lon="2.93591">
        <ele>122</ele>
        <time>2013-09-22T15:07:08Z</time>
      </trkpt>
      <trkpt lat="47.92433" lon="2.93618">
        <ele>120</ele>
        <time>2013-09-22T15:07:09Z</time>
      </trkpt>
      <trkpt lat="47.92425" lon="2.93649">
        <ele>121</ele>
        <time>2013-09-22T15:07:10Z</time>
      </trkpt>
      <trkpt lat="47.92419" lon="2.93682">
        <ele>121</ele>
        <time>2013-09-22T15:07:11Z</time>
      </trkpt>
      <trkpt lat="47.92413" lon="2.93715">
        <ele>122</ele>
        <time>2013-09-22T15:07:12Z</time>
      </trkpt>
      <trkpt lat="47.92407" lon="2.93748">
        <ele>122</ele>
        <time>2013-09-22T15:07:13Z</time>
      </trkpt>
      <trkpt lat="47.924" lon="2.9378">
        <ele>124</ele>
        <time>2013-09-22T15:07:14Z</time>
      </trkpt>
      <trkpt lat="47.92388" lon="2.9381">
        <ele>126</ele>
        <time>2013-09-22T15:07:15Z</time>
      </trkpt>
      <trkpt lat="47.92375" lon="2.93841">
        <ele>128</ele>
        <time>2013-09-22T15:07:16Z</time>
      </trkpt>
      <trkpt lat="47.9236" lon="2.93873">
        <ele>128</ele>
        <time>2013-09-22T15:07:17Z</time>
      </trkpt>
      <trkpt lat="47.92344" lon="2.93901">
        <ele>130</ele>
        <time>2013-09-22T15:07:18Z</time>
      </trkpt>
      <trkpt lat="47.92328" lon="2.9393">
        <ele>131</ele>
        <time>2013-09-22T15:07:19Z</time>
      </trkpt>
      <trkpt lat="47.92313" lon="2.93959">
        <ele>132</ele>
        <time>2013-09-22T15:07:20Z</time>
      </trkpt>
      <trkpt lat="47.92297" lon="2.93987">
        <ele>132</ele>
        <time>2013-09-22T15:07:21Z</time>
      </trkpt>
      <trkpt lat="47.92283" lon="2.94016">
        <ele>133</ele>
        <time>2013-09-22T15:07:22Z</time>
      </trkpt>
      <trkpt lat="47.92271" lon="2.94045">
        <ele>133</ele>
        <time>2013-09-22T15:07:23Z</time>
      </trkpt>
      <trkpt lat="47.9226" lon="2.94071">
        <ele>133</ele>
        <time>2013-09-22T15:07:24Z</time>
      </trkpt>
      <trkpt lat="47.9225" lon="2.94099">
        <ele>135</ele>
        <time>2013-09-22T15:07:25Z</time>
      </trkpt>
      <trkpt lat="47.9224" lon="2.94127">
        <ele>135</ele>
        <time>2013-09-22T15:07:26Z</time>
      </trkpt>
      <trkpt lat="47.92233" lon="2.94155">
        <ele>137</ele>
        <time>2013-09-22T15:07:27Z</time>
      </trkpt>
      <trkpt lat="47.92227" lon="2.94186">
        <ele>138</ele>
        <time>2013-09-22T15:07:28Z</time>
      </trkpt>
      <trkpt lat="47.92221" lon="2.94217">
        <ele>138</ele>
        <time>2013-09-22T15:07:29Z</time>
      </trkpt>
      <trkpt lat="47.92217" lon="2.94248">
        <ele>140</ele>
        <time>2013-09-22T15:07:30Z</time>
      </trkpt>
      <trkpt lat="47.92212" lon="2.94278">
        <ele>139</ele>
        <time>2013-09-22T15:07:31Z</time>
      </trkpt>
      <trkpt lat="47.92206" lon="2.9431">
        <ele>140</ele>
        <time>2013-09-22T15:07:32Z</time>
      </trkpt>
      <trkpt lat="47.92201" lon="2.94341">
        <ele>141</ele>
        <time>2013-09-22T15:07:33Z</time>
      </trkpt>
      <trkpt lat="47.92195" lon="2.94373">
        <ele>141</ele>
        <time>2013-09-22T15:07:34Z</time>
      </trkpt>
      <trkpt lat="47.9219" lon="2.94405">
        <ele>141</ele>
        <time>2013-09-22T15:07:35Z</time>
      </trkpt>
      <trkpt lat="47.92184" lon="2.94437">
        <ele>143</ele>
        <time>2013-09-22T15:07:36Z</time>
      </trkpt>
      <trkpt lat="47.92179" lon="2.9447">
        <ele>144</ele>
        <time>2013-09-22T15:07:37Z</time>
      </trkpt>
      <trkpt lat="47.92174" lon="2.94503">
        <ele>144</ele>
        <time>2013-09-22T15:07:38Z</time>
      </trkpt>
      <trkpt lat="47.92169" lon="2.94533">
        <ele>144</ele>
        <time>2013-09-22T15:07:39Z</time>
      </trkpt>
      <trkpt lat="47.92165" lon="2.94562">
        <ele>147</ele>
        <time>2013-09-22T15:07:40Z</time>
      </trkpt>
      <trkpt lat="47.92161" lon="2.94589">
        <ele>148</ele>
        <time>2013-09-22T15:07:41Z</time>
      </trkpt>
      <trkpt lat="47.92155" lon="2.94636">
        <ele>150</ele>
        <time>2013-09-22T15:07:43Z</time>
      </trkpt>
      <trkpt lat="47.92151" lon="2.94671">
        <ele>151</ele>
        <time>2013-09-22T15:07:45Z</time>
      </trkpt>
      <trkpt lat="47.92153" lon="2.947">
        <ele>155</ele>
        <time>2013-09-22T15:07:48Z</time>
      </trkpt>
      <trkpt lat="47.92176" lon="2.94697">
        <ele>152</ele>
        <time>2013-09-22T15:07:51Z</time>
      </trkpt>
      <trkpt lat="47.92201" lon="2.94689">
        <ele>150</ele>
        <time>2013-09-22T15:07:53Z</time>
      </trkpt>
      <trkpt lat="47.92233" lon="2.94686">
        <ele>147</ele>
        <time>2013-09-22T15:07:55Z</time>
      </trkpt>
      <trkpt lat="47.92253" lon="2.94686">
        <ele>146</ele>
        <time>2013-09-22T15:07:56Z</time>
      </trkpt>
      <trkpt lat="47.92273" lon="2.94683">
        <ele>146</ele>
        <time>2013-09-22T15:07:57Z</time>
      </trkpt>
      <trkpt lat="47.92295" lon="2.94681">
        <ele>146</ele>
        <time>2013-09-22T15:07:58Z</time>
      </trkpt>
      <trkpt lat="47.92314" lon="2.94681">
        <ele>144</ele>
        <time>2013-09-22T15:07:59Z</time>
      </trkpt>
      <trkpt lat="47.92333" lon="2.94679">
        <ele>143</ele>
        <time>2013-09-22T15:08:00Z</time>
      </trkpt>
      <trkpt lat="47.92354" lon="2.94677">
        <ele>142</ele>
        <time>2013-09-22T15:08:01Z</time>
      </trkpt>
      <trkpt lat="47.92373" lon="2.94675">
        <ele>142</ele>
        <time>2013-09-22T15:08:02Z</time>
      </trkpt>
      <trkpt lat="47.92393" lon="2.9467">
        <ele>140</ele>
        <time>2013-09-22T15:08:03Z</time>
      </trkpt>
      <trkpt lat="47.92413" lon="2.94665">
        <ele>138</ele>
        <time>2013-09-22T15:08:04Z</time>
      </trkpt>
      <trkpt lat="47.92431" lon="2.94656">
        <ele>136</ele>
        <time>2013-09-22T15:08:05Z</time>
      </trkpt>
      <trkpt lat="47.92451" lon="2.94646">
        <ele>135</ele>
        <time>2013-09-22T15:08:06Z</time>
      </trkpt>
      <trkpt lat="47.92471" lon="2.94638">
        <ele>134</ele>
        <time>2013-09-22T15:08:07Z</time>
      </trkpt>
      <trkpt lat="47.92491" lon="2.94631">
        <ele>134</ele>
        <time>2013-09-22T15:08:08Z</time>
      </trkpt>
      <trkpt lat="47.9251" lon="2.94624">
        <ele>134</ele>
        <time>2013-09-22T15:08:09Z</time>
      </trkpt>
      <trkpt lat="47.92529" lon="2.94619">
        <ele>134</ele>
        <time>2013-09-22T15:08:10Z</time>
      </trkpt>
      <trkpt lat="47.92551" lon="2.94618">
        <ele>133</ele>
        <time>2013-09-22T15:08:11Z</time>
      </trkpt>
      <trkpt lat="47.9257" lon="2.94613">
        <ele>133</ele>
        <time>2013-09-22T15:08:12Z</time>
      </trkpt>
      <trkpt lat="47.9259" lon="2.9461">
        <ele>133</ele>
        <time>2013-09-22T15:08:13Z</time>
      </trkpt>
      <trkpt lat="47.92626" lon="2.94605">
        <ele>131</ele>
        <time>2013-09-22T15:08:15Z</time>
      </trkpt>
      <trkpt lat="47.92663" lon="2.94603">
        <ele>127</ele>
        <time>2013-09-22T15:08:17Z</time>
      </trkpt>
      <trkpt lat="47.92698" lon="2.94595">
        <ele>125</ele>
        <time>2013-09-22T15:08:19Z</time>
      </trkpt>
      <trkpt lat="47.92729" lon="2.9459">
        <ele>124</ele>
        <time>2013-09-22T15:08:21Z</time>
      </trkpt>
      <trkpt lat="47.92757" lon="2.94586">
        <ele>124</ele>
        <time>2013-09-22T15:08:23Z</time>
      </trkpt>
      <trkpt lat="47.92775" lon="2.94574">
        <ele>120</ele>
        <time>2013-09-22T15:08:25Z</time>
      </trkpt>
      <trkpt lat="47.92792" lon="2.94556">
        <ele>118</ele>
        <time>2013-09-22T15:08:27Z</time>
      </trkpt>
      <trkpt lat="47.92806" lon="2.94533">
        <ele>120</ele>
        <time>2013-09-22T15:08:29Z</time>
      </trkpt>
      <trkpt lat="47.92808" lon="2.94498">
        <ele>120</ele>
        <time>2013-09-22T15:08:31Z</time>
      </trkpt>
      <trkpt lat="47.92809" lon="2.94457">
        <ele>119</ele>
        <time>2013-09-22T15:08:33Z</time>
      </trkpt>
      <trkpt lat="47.92811" lon="2.94413">
        <ele>119</ele>
        <time>2013-09-22T15:08:35Z</time>
      </trkpt>
      <trkpt lat="47.92812" lon="2.94365">
        <ele>118</ele>
        <time>2013-09-22T15:08:37Z</time>
      </trkpt>
      <trkpt lat="47.92814" lon="2.94318">
        <ele>118</ele>
        <time>2013-09-22T15:08:39Z</time>
      </trkpt>
      <trkpt lat="47.92814" lon="2.94268">
        <ele>118</ele>
        <time>2013-09-22T15:08:41Z</time>
      </trkpt>
      <trkpt lat="47.92814" lon="2.94217">
        <ele>118</ele>
        <time>2013-09-22T15:08:43Z</time>
      </trkpt>
      <trkpt lat="47.92813" lon="2.94167">
        <ele>118</ele>
        <time>2013-09-22T15:08:45Z</time>
      </trkpt>
      <trkpt lat="47.92811" lon="2.94118">
        <ele>118</ele>
        <time>2013-09-22T15:08:47Z</time>
      </trkpt>
      <trkpt lat="47.92811" lon="2.94046">
        <ele>117</ele>
        <time>2013-09-22T15:08:50Z</time>
      </trkpt>
      <trkpt lat="47.92817" lon="2.93971">
        <ele>116</ele>
        <time>2013-09-22T15:08:53Z</time>
      </trkpt>
      <trkpt lat="47.92824" lon="2.93922">
        <ele>116</ele>
        <time>2013-09-22T15:08:55Z</time>
      </trkpt>
      <trkpt lat="47.92831" lon="2.93873">
        <ele>116</ele>
        <time>2013-09-22T15:08:57Z</time>
      </trkpt>
      <trkpt lat="47.92838" lon="2.93823">
        <ele>115</ele>
        <time>2013-09-22T15:08:59Z</time>
      </trkpt>
      <trkpt lat="47.92845" lon="2.93775">
        <ele>114</ele>
        <time>2013-09-22T15:09:01Z</time>
      </trkpt>
      <trkpt lat="47.92851" lon="2.93725">
        <ele>114</ele>
        <time>2013-09-22T15:09:03Z</time>
      </trkpt>
      <trkpt lat="47.92857" lon="2.93676">
        <ele>114</ele>
        <time>2013-09-22T15:09:05Z</time>
      </trkpt>
      <trkpt lat="47.92863" lon="2.93628">
        <ele>114</ele>
        <time>2013-09-22T15:09:07Z</time>
      </trkpt>
      <trkpt lat="47.92862" lon="2.93576">
        <ele>115</ele>
        <time>2013-09-22T15:09:09Z</time>
      </trkpt>
      <trkpt lat="47.92856" lon="2.93526">
        <ele>115</ele>
        <time>2013-09-22T15:09:11Z</time>
      </trkpt>
      <trkpt lat="47.9285" lon="2.93477">
        <ele>114</ele>
        <time>2013-09-22T15:09:13Z</time>
      </trkpt>
      <trkpt lat="47.92847" lon="2.93427">
        <ele>114</ele>
        <time>2013-09-22T15:09:15Z</time>
      </trkpt>
      <trkpt lat="47.92844" lon="2.93375">
        <ele>115</ele>
        <time>2013-09-22T15:09:17Z</time>
      </trkpt>
      <trkpt lat="47.92841" lon="2.93323">
        <ele>114</ele>
        <time>2013-09-22T15:09:19Z</time>
      </trkpt>
      <trkpt lat="47.92838" lon="2.9327">
        <ele>114</ele>
        <time>2013-09-22T15:09:21Z</time>
      </trkpt>
      <trkpt lat="47.92836" lon="2.9322">
        <ele>114</ele>
        <time>2013-09-22T15:09:23Z</time>
      </trkpt>
      <trkpt lat="47.92832" lon="2.9317">
        <ele>113</ele>
        <time>2013-09-22T15:09:25Z</time>
      </trkpt>
      <trkpt lat="47.92828" lon="2.93122">
        <ele>114</ele>
        <time>2013-09-22T15:09:27Z</time>
      </trkpt>
      <trkpt lat="47.92824" lon="2.93078">
        <ele>113</ele>
        <time>2013-09-22T15:09:29Z</time>
      </trkpt>
      <trkpt lat="47.9282" lon="2.93036">
        <ele>115</ele>
        <time>2013-09-22T15:09:31Z</time>
      </trkpt>
      <trkpt lat="47.92816" lon="2.92998">
        <ele>115</ele>
        <time>2013-09-22T15:09:33Z</time>
      </trkpt>
      <trkpt lat="47.92813" lon="2.92965">
        <ele>115</ele>
        <time>2013-09-22T15:09:35Z</time>
      </trkpt>
      <trkpt lat="47.92811" lon="2.92936">
        <ele>115</ele>
        <time>2013-09-22T15:09:37Z</time>
      </trkpt>
      <trkpt lat="47.9281" lon="2.92904">
        <ele>116</ele>
        <time>2013-09-22T15:09:40Z</time>
      </trkpt>
      <trkpt lat="47.92812" lon="2.92875">
        <ele>117</ele>
        <time>2013-09-22T15:09:45Z</time>
      </trkpt>
    </trkseg>
  </trk>
</gpx>